PWSweather.com
Personal Weather Stations
Station Observations
KILASHKU1
Ashkum, IL

Ashkum, IL

Lat: 40.8779862, Lon: -87.846552

Elevation: 626

Station Type: Davis Vantage Pro 2

High Low Average
Temperature 26.7°F-2.9°C 7.4°F-13.7°C 19.3°F-7.1°C
Dew Point 21.6°F-5.8°C 3.0°F-16.1°C 12.7°F-10.7°C
Winds 11.0 mph 17.7 kmh Calm Calm 5.0 mph S8.0 kmh S
Wind Gusts 24.0 mph38.6 kmh 2.0 mph3.2 kmh 11.0 mph17.7 kmh
Humidity 83% 59% 75%
Pressure 30.50 in1032.8 mb 30.16 in1021.3 mb -
Precipitation 0.00 in0.0 mm - -
Hour Temp Dew Point Humidity Winds Wind Gusts Pressure Precip Precip Rate Daily Precip Total
12:00 AM 8.1°F-13.3°C 3.2°F-16.0°C 80% 2.0 mph S3.2 kmh S 3.0 mph4.8 kmh 30.50 in1032.8 mb 0.00 in0.0 mm 0.00 in0.0 mm 0.00 in0.0 mm
12:02 AM 8.1°F-13.3°C 3.2°F-16.0°C 80% 2.0 mph S3.2 kmh S 3.0 mph4.8 kmh 30.50 in1032.8 mb 0.00 in0.0 mm 0.00 in0.0 mm 0.00 in0.0 mm
12:04 AM 8.1°F-13.3°C 3.2°F-16.0°C 80% 2.0 mph S3.2 kmh S 3.0 mph4.8 kmh 30.49 in1032.5 mb 0.00 in0.0 mm 0.00 in0.0 mm 0.00 in0.0 mm
12:06 AM 8.0°F-13.3°C 3.1°F-16.1°C 80% 2.0 mph S3.2 kmh S 3.0 mph4.8 kmh 30.49 in1032.5 mb 0.00 in0.0 mm 0.00 in0.0 mm 0.00 in0.0 mm
12:08 AM 8.1°F-13.3°C 3.2°F-16.0°C 80% 2.0 mph S3.2 kmh S 4.0 mph6.4 kmh 30.50 in1032.8 mb 0.00 in0.0 mm 0.00 in0.0 mm 0.00 in0.0 mm
12:10 AM 8.1°F-13.3°C 3.2°F-16.0°C 80% 2.0 mph S3.2 kmh S 4.0 mph6.4 kmh 30.50 in1032.8 mb 0.00 in0.0 mm 0.00 in0.0 mm 0.00 in0.0 mm
12:12 AM 8.0°F-13.3°C 3.1°F-16.1°C 80% 2.0 mph S3.2 kmh S 4.0 mph6.4 kmh 30.50 in1032.8 mb 0.00 in0.0 mm 0.00 in0.0 mm 0.00 in0.0 mm
12:14 AM 8.0°F-13.3°C 3.1°F-16.1°C 80% 2.0 mph S3.2 kmh S 6.0 mph9.7 kmh 30.50 in1032.8 mb 0.00 in0.0 mm 0.00 in0.0 mm 0.00 in0.0 mm
12:16 AM 8.1°F-13.3°C 3.5°F-15.8°C 81% 3.0 mph S4.8 kmh S 6.0 mph9.7 kmh 30.50 in1032.8 mb 0.00 in0.0 mm 0.00 in0.0 mm 0.00 in0.0 mm
12:18 AM 8.1°F-13.3°C 3.5°F-15.8°C 81% 2.0 mph S3.2 kmh S 6.0 mph9.7 kmh 30.50 in1032.8 mb 0.00 in0.0 mm 0.00 in0.0 mm 0.00 in0.0 mm
12:20 AM 8.1°F-13.3°C 3.5°F-15.8°C 81% 2.0 mph S3.2 kmh S 6.0 mph9.7 kmh 30.50 in1032.8 mb 0.00 in0.0 mm 0.00 in0.0 mm 0.00 in0.0 mm
12:22 AM 8.2°F-13.2°C 3.6°F-15.8°C 81% 2.0 mph S3.2 kmh S 6.0 mph9.7 kmh 30.50 in1032.8 mb 0.00 in0.0 mm 0.00 in0.0 mm 0.00 in0.0 mm
12:24 AM 8.2°F-13.2°C 3.6°F-15.8°C 81% 2.0 mph S3.2 kmh S 5.0 mph8.0 kmh 30.50 in1032.8 mb 0.00 in0.0 mm 0.00 in0.0 mm 0.00 in0.0 mm
12:26 AM 8.2°F-13.2°C 3.6°F-15.8°C 81% 2.0 mph S3.2 kmh S 5.0 mph8.0 kmh 30.49 in1032.5 mb 0.00 in0.0 mm 0.00 in0.0 mm 0.00 in0.0 mm
12:28 AM 8.2°F-13.2°C 3.6°F-15.8°C 81% 2.0 mph S3.2 kmh S 5.0 mph8.0 kmh 30.49 in1032.5 mb 0.00 in0.0 mm 0.00 in0.0 mm 0.00 in0.0 mm
12:30 AM 8.2°F-13.2°C 3.6°F-15.8°C 81% 2.0 mph S3.2 kmh S 5.0 mph8.0 kmh 30.49 in1032.5 mb 0.00 in0.0 mm 0.00 in0.0 mm 0.00 in0.0 mm
12:32 AM 8.1°F-13.3°C 3.5°F-15.8°C 81% 1.0 mph S1.6 kmh S 5.0 mph8.0 kmh 30.48 in1032.2 mb 0.00 in0.0 mm 0.00 in0.0 mm 0.00 in0.0 mm
12:34 AM 8.1°F-13.3°C 3.5°F-15.8°C 81% 1.0 mph S1.6 kmh S 3.0 mph4.8 kmh 30.48 in1032.2 mb 0.00 in0.0 mm 0.00 in0.0 mm 0.00 in0.0 mm
12:36 AM 8.0°F-13.3°C 3.1°F-16.1°C 80% 2.0 mph S3.2 kmh S 3.0 mph4.8 kmh 30.48 in1032.2 mb 0.00 in0.0 mm 0.00 in0.0 mm 0.00 in0.0 mm
12:38 AM 8.0°F-13.3°C 3.1°F-16.1°C 80% 2.0 mph S3.2 kmh S 3.0 mph4.8 kmh 30.48 in1032.2 mb 0.00 in0.0 mm 0.00 in0.0 mm 0.00 in0.0 mm
12:40 AM 8.0°F-13.3°C 3.1°F-16.1°C 80% 2.0 mph S3.2 kmh S 4.0 mph6.4 kmh 30.49 in1032.5 mb 0.00 in0.0 mm 0.00 in0.0 mm 0.00 in0.0 mm
12:42 AM 7.9°F-13.4°C 3.3°F-15.9°C 81% 2.0 mph S3.2 kmh S 4.0 mph6.4 kmh 30.49 in1032.5 mb 0.00 in0.0 mm 0.00 in0.0 mm 0.00 in0.0 mm
12:44 AM 8.0°F-13.3°C 3.4°F-15.9°C 81% 2.0 mph S3.2 kmh S 4.0 mph6.4 kmh 30.49 in1032.5 mb 0.00 in0.0 mm 0.00 in0.0 mm 0.00 in0.0 mm
12:46 AM 8.0°F-13.3°C 3.4°F-15.9°C 81% 1.0 mph S1.6 kmh S 4.0 mph6.4 kmh 30.49 in1032.5 mb 0.00 in0.0 mm 0.00 in0.0 mm 0.00 in0.0 mm
12:48 AM 8.0°F-13.3°C 3.4°F-15.9°C 81% 1.0 mph S1.6 kmh S 4.0 mph6.4 kmh 30.50 in1032.8 mb 0.00 in0.0 mm 0.00 in0.0 mm 0.00 in0.0 mm
12:50 AM 8.0°F-13.3°C 3.4°F-15.9°C 81% 1.0 mph S1.6 kmh S 4.0 mph6.4 kmh 30.50 in1032.8 mb 0.00 in0.0 mm 0.00 in0.0 mm 0.00 in0.0 mm
12:52 AM 8.1°F-13.3°C 3.5°F-15.8°C 81% 1.0 mph S1.6 kmh S 2.0 mph3.2 kmh 30.49 in1032.5 mb 0.00 in0.0 mm 0.00 in0.0 mm 0.00 in0.0 mm
12:54 AM 8.1°F-13.3°C 3.5°F-15.8°C 81% 1.0 mph S1.6 kmh S 3.0 mph4.8 kmh 30.49 in1032.5 mb 0.00 in0.0 mm 0.00 in0.0 mm 0.00 in0.0 mm
12:56 AM 8.1°F-13.3°C 3.5°F-15.8°C 81% 1.0 mph S1.6 kmh S 3.0 mph4.8 kmh 30.49 in1032.5 mb 0.00 in0.0 mm 0.00 in0.0 mm 0.00 in0.0 mm
12:58 AM 8.1°F-13.3°C 3.5°F-15.8°C 81% 1.0 mph S1.6 kmh S 3.0 mph4.8 kmh 30.49 in1032.5 mb 0.00 in0.0 mm 0.00 in0.0 mm 0.00 in0.0 mm
01:00 AM 8.0°F-13.3°C 3.4°F-15.9°C 81% 1.0 mph S1.6 kmh S 3.0 mph4.8 kmh 30.49 in1032.5 mb 0.00 in0.0 mm 0.00 in0.0 mm 0.00 in0.0 mm
01:02 AM 8.0°F-13.3°C 3.4°F-15.9°C 81% 1.0 mph S1.6 kmh S 3.0 mph4.8 kmh 30.48 in1032.2 mb 0.00 in0.0 mm 0.00 in0.0 mm 0.00 in0.0 mm
01:04 AM 7.9°F-13.4°C 3.3°F-15.9°C 81% 1.0 mph S1.6 kmh S 3.0 mph4.8 kmh 30.48 in1032.2 mb 0.00 in0.0 mm 0.00 in0.0 mm 0.00 in0.0 mm
01:06 AM 7.8°F-13.4°C 3.2°F-16.0°C 81% 2.0 mph S3.2 kmh S 3.0 mph4.8 kmh 30.48 in1032.2 mb 0.00 in0.0 mm 0.00 in0.0 mm 0.00 in0.0 mm
01:08 AM 7.8°F-13.4°C 3.2°F-16.0°C 81% 2.0 mph S3.2 kmh S 3.0 mph4.8 kmh 30.48 in1032.2 mb 0.00 in0.0 mm 0.00 in0.0 mm 0.00 in0.0 mm
01:10 AM 7.7°F-13.5°C 3.1°F-16.1°C 81% 2.0 mph S3.2 kmh S 3.0 mph4.8 kmh 30.48 in1032.2 mb 0.00 in0.0 mm 0.00 in0.0 mm 0.00 in0.0 mm
01:12 AM 7.6°F-13.6°C 3.0°F-16.1°C 81% 2.0 mph S3.2 kmh S 3.0 mph4.8 kmh 30.48 in1032.2 mb 0.00 in0.0 mm 0.00 in0.0 mm 0.00 in0.0 mm
01:14 AM 7.5°F-13.6°C 3.2°F-16.0°C 82% 2.0 mph S3.2 kmh S 3.0 mph4.8 kmh 30.48 in1032.2 mb 0.00 in0.0 mm 0.00 in0.0 mm 0.00 in0.0 mm
01:16 AM 7.5°F-13.6°C 3.2°F-16.0°C 82% 2.0 mph S3.2 kmh S 3.0 mph4.8 kmh 30.48 in1032.2 mb 0.00 in0.0 mm 0.00 in0.0 mm 0.00 in0.0 mm
01:18 AM 7.4°F-13.7°C 3.1°F-16.1°C 82% 2.0 mph S3.2 kmh S 3.0 mph4.8 kmh 30.48 in1032.2 mb 0.00 in0.0 mm 0.00 in0.0 mm 0.00 in0.0 mm
01:20 AM 7.4°F-13.7°C 3.1°F-16.1°C 82% 2.0 mph S3.2 kmh S 3.0 mph4.8 kmh 30.48 in1032.2 mb 0.00 in0.0 mm 0.00 in0.0 mm 0.00 in0.0 mm
01:22 AM 7.5°F-13.6°C 3.2°F-16.0°C 82% 1.0 mph S1.6 kmh S 3.0 mph4.8 kmh 30.48 in1032.2 mb 0.00 in0.0 mm 0.00 in0.0 mm 0.00 in0.0 mm
01:24 AM 7.5°F-13.6°C 3.2°F-16.0°C 82% 1.0 mph S1.6 kmh S 3.0 mph4.8 kmh 30.48 in1032.2 mb 0.00 in0.0 mm 0.00 in0.0 mm 0.00 in0.0 mm
01:26 AM 7.6°F-13.6°C 3.3°F-15.9°C 82% 1.0 mph S1.6 kmh S 3.0 mph4.8 kmh 30.48 in1032.2 mb 0.00 in0.0 mm 0.00 in0.0 mm 0.00 in0.0 mm
01:28 AM 7.6°F-13.6°C 3.5°F-15.8°C 83% 1.0 mph S1.6 kmh S 3.0 mph4.8 kmh 30.48 in1032.2 mb 0.00 in0.0 mm 0.00 in0.0 mm 0.00 in0.0 mm
01:30 AM 7.7°F-13.5°C 3.6°F-15.8°C 83% 1.0 mph S1.6 kmh S 3.0 mph4.8 kmh 30.48 in1032.2 mb 0.00 in0.0 mm 0.00 in0.0 mm 0.00 in0.0 mm
01:32 AM 7.9°F-13.4°C 3.8°F-15.7°C 83% 1.0 mph S1.6 kmh S 5.0 mph8.0 kmh 30.48 in1032.2 mb 0.00 in0.0 mm 0.00 in0.0 mm 0.00 in0.0 mm
01:34 AM 8.0°F-13.3°C 3.9°F-15.6°C 83% 2.0 mph S3.2 kmh S 5.0 mph8.0 kmh 30.49 in1032.5 mb 0.00 in0.0 mm 0.00 in0.0 mm 0.00 in0.0 mm
01:36 AM 8.2°F-13.2°C 3.8°F-15.7°C 82% 2.0 mph S3.2 kmh S 6.0 mph9.7 kmh 30.49 in1032.5 mb 0.00 in0.0 mm 0.00 in0.0 mm 0.00 in0.0 mm
01:38 AM 8.4°F-13.1°C 4.0°F-15.6°C 82% 3.0 mph S4.8 kmh S 6.0 mph9.7 kmh 30.49 in1032.5 mb 0.00 in0.0 mm 0.00 in0.0 mm 0.00 in0.0 mm
01:40 AM 8.6°F-13.0°C 4.2°F-15.4°C 82% 3.0 mph S4.8 kmh S 6.0 mph9.7 kmh 30.48 in1032.2 mb 0.00 in0.0 mm 0.00 in0.0 mm 0.00 in0.0 mm
01:42 AM 8.6°F-13.0°C 4.0°F-15.6°C 81% 3.0 mph S4.8 kmh S 6.0 mph9.7 kmh 30.48 in1032.2 mb 0.00 in0.0 mm 0.00 in0.0 mm 0.00 in0.0 mm
01:44 AM 8.7°F-12.9°C 4.1°F-15.5°C 81% 3.0 mph S4.8 kmh S 6.0 mph9.7 kmh 30.48 in1032.2 mb 0.00 in0.0 mm 0.00 in0.0 mm 0.00 in0.0 mm
01:46 AM 8.8°F-12.9°C 4.2°F-15.4°C 81% 2.0 mph S3.2 kmh S 5.0 mph8.0 kmh 30.48 in1032.2 mb 0.00 in0.0 mm 0.00 in0.0 mm 0.00 in0.0 mm
01:48 AM 8.9°F-12.8°C 4.3°F-15.4°C 81% 2.0 mph S3.2 kmh S 5.0 mph8.0 kmh 30.48 in1032.2 mb 0.00 in0.0 mm 0.00 in0.0 mm 0.00 in0.0 mm
01:50 AM 8.9°F-12.8°C 4.3°F-15.4°C 81% 2.0 mph S3.2 kmh S 5.0 mph8.0 kmh 30.48 in1032.2 mb 0.00 in0.0 mm 0.00 in0.0 mm 0.00 in0.0 mm
01:52 AM 8.9°F-12.8°C 4.0°F-15.6°C 80% 2.0 mph S3.2 kmh S 6.0 mph9.7 kmh 30.48 in1032.2 mb 0.00 in0.0 mm 0.00 in0.0 mm 0.00 in0.0 mm
01:54 AM 8.9°F-12.8°C 4.0°F-15.6°C 80% 3.0 mph S4.8 kmh S 6.0 mph9.7 kmh 30.48 in1032.2 mb 0.00 in0.0 mm 0.00 in0.0 mm 0.00 in0.0 mm
01:56 AM 8.9°F-12.8°C 4.0°F-15.6°C 80% 3.0 mph S4.8 kmh S 6.0 mph9.7 kmh 30.48 in1032.2 mb 0.00 in0.0 mm 0.00 in0.0 mm 0.00 in0.0 mm
01:58 AM 8.9°F-12.8°C 4.0°F-15.6°C 80% 3.0 mph S4.8 kmh S 6.0 mph9.7 kmh 30.48 in1032.2 mb 0.00 in0.0 mm 0.00 in0.0 mm 0.00 in0.0 mm
02:00 AM 8.9°F-12.8°C 4.3°F-15.4°C 81% 2.0 mph S3.2 kmh S 6.0 mph9.7 kmh 30.48 in1032.2 mb 0.00 in0.0 mm 0.00 in0.0 mm 0.00 in0.0 mm
02:02 AM 8.9°F-12.8°C 4.3°F-15.4°C 81% 2.0 mph S3.2 kmh S 5.0 mph8.0 kmh 30.48 in1032.2 mb 0.00 in0.0 mm 0.00 in0.0 mm 0.00 in0.0 mm
02:04 AM 9.0°F-12.8°C 4.4°F-15.3°C 81% 2.0 mph S3.2 kmh S 5.0 mph8.0 kmh 30.48 in1032.2 mb 0.00 in0.0 mm 0.00 in0.0 mm 0.00 in0.0 mm
02:06 AM 9.0°F-12.8°C 4.4°F-15.3°C 81% 2.0 mph S3.2 kmh S 3.0 mph4.8 kmh 30.48 in1032.2 mb 0.00 in0.0 mm 0.00 in0.0 mm 0.00 in0.0 mm
02:08 AM 9.0°F-12.8°C 4.4°F-15.3°C 81% 2.0 mph S3.2 kmh S 3.0 mph4.8 kmh 30.48 in1032.2 mb 0.00 in0.0 mm 0.00 in0.0 mm 0.00 in0.0 mm
02:10 AM 9.0°F-12.8°C 4.4°F-15.3°C 81% 2.0 mph S3.2 kmh S 3.0 mph4.8 kmh 30.48 in1032.2 mb 0.00 in0.0 mm 0.00 in0.0 mm 0.00 in0.0 mm
02:12 AM 9.0°F-12.8°C 4.4°F-15.3°C 81% 2.0 mph S3.2 kmh S 3.0 mph4.8 kmh 30.48 in1032.2 mb 0.00 in0.0 mm 0.00 in0.0 mm 0.00 in0.0 mm
02:14 AM 9.0°F-12.8°C 4.4°F-15.3°C 81% 2.0 mph S3.2 kmh S 6.0 mph9.7 kmh 30.48 in1032.2 mb 0.00 in0.0 mm 0.00 in0.0 mm 0.00 in0.0 mm
02:16 AM 9.0°F-12.8°C 4.4°F-15.3°C 81% 2.0 mph S3.2 kmh S 6.0 mph9.7 kmh 30.48 in1032.2 mb 0.00 in0.0 mm 0.00 in0.0 mm 0.00 in0.0 mm
02:18 AM 9.0°F-12.8°C 4.4°F-15.3°C 81% 2.0 mph S3.2 kmh S 6.0 mph9.7 kmh 30.48 in1032.2 mb 0.00 in0.0 mm 0.00 in0.0 mm 0.00 in0.0 mm
02:20 AM 9.0°F-12.8°C 4.4°F-15.3°C 81% 2.0 mph S3.2 kmh S 6.0 mph9.7 kmh 30.48 in1032.2 mb 0.00 in0.0 mm 0.00 in0.0 mm 0.00 in0.0 mm
02:22 AM 9.0°F-12.8°C 4.4°F-15.3°C 81% 2.0 mph S3.2 kmh S 6.0 mph9.7 kmh 30.48 in1032.2 mb 0.00 in0.0 mm 0.00 in0.0 mm 0.00 in0.0 mm
02:24 AM 9.0°F-12.8°C 4.4°F-15.3°C 81% 2.0 mph S3.2 kmh S 4.0 mph6.4 kmh 30.48 in1032.2 mb 0.00 in0.0 mm 0.00 in0.0 mm 0.00 in0.0 mm
02:26 AM 8.9°F-12.8°C 4.3°F-15.4°C 81% 1.0 mph S1.6 kmh S 4.0 mph6.4 kmh 30.48 in1032.2 mb 0.00 in0.0 mm 0.00 in0.0 mm 0.00 in0.0 mm
02:28 AM 8.9°F-12.8°C 4.3°F-15.4°C 81% 1.0 mph S1.6 kmh S 4.0 mph6.4 kmh 30.48 in1032.2 mb 0.00 in0.0 mm 0.00 in0.0 mm 0.00 in0.0 mm
02:30 AM 8.9°F-12.8°C 4.3°F-15.4°C 81% 1.0 mph S1.6 kmh S 3.0 mph4.8 kmh 30.48 in1032.2 mb 0.00 in0.0 mm 0.00 in0.0 mm 0.00 in0.0 mm
02:32 AM 8.9°F-12.8°C 4.5°F-15.3°C 82% Calm Calm 2.0 mph3.2 kmh 30.48 in1032.2 mb 0.00 in0.0 mm 0.00 in0.0 mm 0.00 in0.0 mm
02:34 AM 8.9°F-12.8°C 4.5°F-15.3°C 82% Calm Calm 2.0 mph3.2 kmh 30.48 in1032.2 mb 0.00 in0.0 mm 0.00 in0.0 mm 0.00 in0.0 mm
02:36 AM 8.9°F-12.8°C 4.5°F-15.3°C 82% Calm Calm 2.0 mph3.2 kmh 30.48 in1032.2 mb 0.00 in0.0 mm 0.00 in0.0 mm 0.00 in0.0 mm
02:38 AM 8.9°F-12.8°C 4.5°F-15.3°C 82% Calm Calm 3.0 mph4.8 kmh 30.48 in1032.2 mb 0.00 in0.0 mm 0.00 in0.0 mm 0.00 in0.0 mm
02:40 AM 9.0°F-12.8°C 4.6°F-15.2°C 82% 1.0 mph S1.6 kmh S 3.0 mph4.8 kmh 30.48 in1032.2 mb 0.00 in0.0 mm 0.00 in0.0 mm 0.00 in0.0 mm
02:42 AM 9.0°F-12.8°C 4.6°F-15.2°C 82% 1.0 mph S1.6 kmh S 3.0 mph4.8 kmh 30.48 in1032.2 mb 0.00 in0.0 mm 0.00 in0.0 mm 0.00 in0.0 mm
02:44 AM 9.0°F-12.8°C 4.6°F-15.2°C 82% 1.0 mph S1.6 kmh S 3.0 mph4.8 kmh 30.48 in1032.2 mb 0.00 in0.0 mm 0.00 in0.0 mm 0.00 in0.0 mm
02:46 AM 9.0°F-12.8°C 4.6°F-15.2°C 82% 1.0 mph S1.6 kmh S 3.0 mph4.8 kmh 30.47 in1031.8 mb 0.00 in0.0 mm 0.00 in0.0 mm 0.00 in0.0 mm
02:48 AM 9.1°F-12.7°C 4.7°F-15.2°C 82% 1.0 mph S1.6 kmh S 2.0 mph3.2 kmh 30.47 in1031.8 mb 0.00 in0.0 mm 0.00 in0.0 mm 0.00 in0.0 mm
02:50 AM 9.1°F-12.7°C 4.7°F-15.2°C 82% 1.0 mph S1.6 kmh S 2.0 mph3.2 kmh 30.47 in1031.8 mb 0.00 in0.0 mm 0.00 in0.0 mm 0.00 in0.0 mm
02:52 AM 9.1°F-12.7°C 4.7°F-15.2°C 82% 1.0 mph S1.6 kmh S 2.0 mph3.2 kmh 30.47 in1031.8 mb 0.00 in0.0 mm 0.00 in0.0 mm 0.00 in0.0 mm
02:54 AM 9.2°F-12.7°C 5.1°F-14.9°C 83% 1.0 mph S1.6 kmh S 2.0 mph3.2 kmh 30.46 in1031.5 mb 0.00 in0.0 mm 0.00 in0.0 mm 0.00 in0.0 mm
02:56 AM 9.3°F-12.6°C 5.2°F-14.9°C 83% 1.0 mph S1.6 kmh S 2.0 mph3.2 kmh 30.47 in1031.8 mb 0.00 in0.0 mm 0.00 in0.0 mm 0.00 in0.0 mm
02:58 AM 9.3°F-12.6°C 5.2°F-14.9°C 83% 1.0 mph S1.6 kmh S 2.0 mph3.2 kmh 30.47 in1031.8 mb 0.00 in0.0 mm 0.00 in0.0 mm 0.00 in0.0 mm
03:00 AM 9.4°F-12.6°C 5.0°F-15.0°C 82% 1.0 mph S1.6 kmh S 2.0 mph3.2 kmh 30.47 in1031.8 mb 0.00 in0.0 mm 0.00 in0.0 mm 0.00 in0.0 mm
03:02 AM 9.4°F-12.6°C 5.0°F-15.0°C 82% 1.0 mph S1.6 kmh S 2.0 mph3.2 kmh 30.46 in1031.5 mb 0.00 in0.0 mm 0.00 in0.0 mm 0.00 in0.0 mm
03:04 AM 9.4°F-12.6°C 5.0°F-15.0°C 82% 1.0 mph S1.6 kmh S 3.0 mph4.8 kmh 30.46 in1031.5 mb 0.00 in0.0 mm 0.00 in0.0 mm 0.00 in0.0 mm
03:06 AM 9.5°F-12.5°C 5.1°F-14.9°C 82% 1.0 mph S1.6 kmh S 3.0 mph4.8 kmh 30.46 in1031.5 mb 0.00 in0.0 mm 0.00 in0.0 mm 0.00 in0.0 mm
03:08 AM 9.5°F-12.5°C 5.1°F-14.9°C 82% 1.0 mph S1.6 kmh S 3.0 mph4.8 kmh 30.46 in1031.5 mb 0.00 in0.0 mm 0.00 in0.0 mm 0.00 in0.0 mm
03:10 AM 9.6°F-12.4°C 5.2°F-14.9°C 82% 2.0 mph S3.2 kmh S 4.0 mph6.4 kmh 30.46 in1031.5 mb 0.00 in0.0 mm 0.00 in0.0 mm 0.00 in0.0 mm
03:12 AM 9.7°F-12.4°C 5.0°F-15.0°C 81% 2.0 mph S3.2 kmh S 4.0 mph6.4 kmh 30.46 in1031.5 mb 0.00 in0.0 mm 0.00 in0.0 mm 0.00 in0.0 mm
03:14 AM 9.7°F-12.4°C 5.0°F-15.0°C 81% 2.0 mph S3.2 kmh S 4.0 mph6.4 kmh 30.46 in1031.5 mb 0.00 in0.0 mm 0.00 in0.0 mm 0.00 in0.0 mm
03:16 AM 9.8°F-12.3°C 5.1°F-14.9°C 81% 2.0 mph S3.2 kmh S 4.0 mph6.4 kmh 30.46 in1031.5 mb 0.00 in0.0 mm 0.00 in0.0 mm 0.00 in0.0 mm
03:18 AM 9.8°F-12.3°C 4.9°F-15.1°C 80% 2.0 mph S3.2 kmh S 4.0 mph6.4 kmh 30.46 in1031.5 mb 0.00 in0.0 mm 0.00 in0.0 mm 0.00 in0.0 mm
03:20 AM 9.9°F-12.3°C 5.2°F-14.9°C 81% 2.0 mph S3.2 kmh S 5.0 mph8.0 kmh 30.46 in1031.5 mb 0.00 in0.0 mm 0.00 in0.0 mm 0.00 in0.0 mm
03:22 AM 9.9°F-12.3°C 5.2°F-14.9°C 81% 2.0 mph S3.2 kmh S 5.0 mph8.0 kmh 30.46 in1031.5 mb 0.00 in0.0 mm 0.00 in0.0 mm 0.00 in0.0 mm
03:24 AM 9.9°F-12.3°C 5.0°F-15.0°C 80% 2.0 mph S3.2 kmh S 5.0 mph8.0 kmh 30.46 in1031.5 mb 0.00 in0.0 mm 0.00 in0.0 mm 0.00 in0.0 mm
03:26 AM 9.9°F-12.3°C 5.0°F-15.0°C 80% 2.0 mph S3.2 kmh S 5.0 mph8.0 kmh 30.45 in1031.2 mb 0.00 in0.0 mm 0.00 in0.0 mm 0.00 in0.0 mm
03:28 AM 9.9°F-12.3°C 5.0°F-15.0°C 80% 2.0 mph S3.2 kmh S 5.0 mph8.0 kmh 30.45 in1031.2 mb 0.00 in0.0 mm 0.00 in0.0 mm 0.00 in0.0 mm
03:30 AM 10.0°F-12.2°C 5.1°F-14.9°C 80% 2.0 mph S3.2 kmh S 5.0 mph8.0 kmh 30.45 in1031.2 mb 0.00 in0.0 mm 0.00 in0.0 mm 0.00 in0.0 mm
03:32 AM 10.0°F-12.2°C 5.1°F-14.9°C 80% 2.0 mph S3.2 kmh S 5.0 mph8.0 kmh 30.45 in1031.2 mb 0.00 in0.0 mm 0.00 in0.0 mm 0.00 in0.0 mm
03:34 AM 10.0°F-12.2°C 5.1°F-14.9°C 80% 2.0 mph S3.2 kmh S 5.0 mph8.0 kmh 30.45 in1031.2 mb 0.00 in0.0 mm 0.00 in0.0 mm 0.00 in0.0 mm
03:36 AM 10.0°F-12.2°C 5.1°F-14.9°C 80% 2.0 mph S3.2 kmh S 5.0 mph8.0 kmh 30.45 in1031.2 mb 0.00 in0.0 mm 0.00 in0.0 mm 0.00 in0.0 mm
03:38 AM 10.0°F-12.2°C 5.1°F-14.9°C 80% 2.0 mph S3.2 kmh S 5.0 mph8.0 kmh 30.45 in1031.2 mb 0.00 in0.0 mm 0.00 in0.0 mm 0.00 in0.0 mm
03:40 AM 10.1°F-12.2°C 5.2°F-14.9°C 80% 2.0 mph S3.2 kmh S 5.0 mph8.0 kmh 30.45 in1031.2 mb 0.00 in0.0 mm 0.00 in0.0 mm 0.00 in0.0 mm
03:42 AM 10.1°F-12.2°C 5.2°F-14.9°C 80% 2.0 mph S3.2 kmh S 5.0 mph8.0 kmh 30.44 in1030.8 mb 0.00 in0.0 mm 0.00 in0.0 mm 0.00 in0.0 mm
03:44 AM 10.1°F-12.2°C 5.2°F-14.9°C 80% 2.0 mph S3.2 kmh S 5.0 mph8.0 kmh 30.44 in1030.8 mb 0.00 in0.0 mm 0.00 in0.0 mm 0.00 in0.0 mm
03:46 AM 10.1°F-12.2°C 5.2°F-14.9°C 80% 2.0 mph S3.2 kmh S 5.0 mph8.0 kmh 30.44 in1030.8 mb 0.00 in0.0 mm 0.00 in0.0 mm 0.00 in0.0 mm
03:48 AM 10.1°F-12.2°C 5.2°F-14.9°C 80% 2.0 mph S3.2 kmh S 5.0 mph8.0 kmh 30.44 in1030.8 mb 0.00 in0.0 mm 0.00 in0.0 mm 0.00 in0.0 mm
03:50 AM 10.2°F-12.1°C 5.3°F-14.8°C 80% 2.0 mph S3.2 kmh S 5.0 mph8.0 kmh 30.44 in1030.8 mb 0.00 in0.0 mm 0.00 in0.0 mm 0.00 in0.0 mm
03:52 AM 10.3°F-12.1°C 5.4°F-14.8°C 80% 2.0 mph S3.2 kmh S 5.0 mph8.0 kmh 30.44 in1030.8 mb 0.00 in0.0 mm 0.00 in0.0 mm 0.00 in0.0 mm
03:54 AM 10.3°F-12.1°C 5.4°F-14.8°C 80% 2.0 mph S3.2 kmh S 4.0 mph6.4 kmh 30.44 in1030.8 mb 0.00 in0.0 mm 0.00 in0.0 mm 0.00 in0.0 mm
03:56 AM 10.4°F-12.0°C 5.5°F-14.7°C 80% 2.0 mph S3.2 kmh S 5.0 mph8.0 kmh 30.44 in1030.8 mb 0.00 in0.0 mm 0.00 in0.0 mm 0.00 in0.0 mm
03:58 AM 10.5°F-11.9°C 5.8°F-14.6°C 81% 2.0 mph S3.2 kmh S 7.0 mph11.3 kmh 30.44 in1030.8 mb 0.00 in0.0 mm 0.00 in0.0 mm 0.00 in0.0 mm
04:00 AM 10.5°F-11.9°C 5.8°F-14.6°C 81% 2.0 mph S3.2 kmh S 7.0 mph11.3 kmh 30.44 in1030.8 mb 0.00 in0.0 mm 0.00 in0.0 mm 0.00 in0.0 mm
04:02 AM 10.5°F-11.9°C 5.8°F-14.6°C 81% 2.0 mph S3.2 kmh S 7.0 mph11.3 kmh 30.44 in1030.8 mb 0.00 in0.0 mm 0.00 in0.0 mm 0.00 in0.0 mm
04:04 AM 10.7°F-11.8°C 6.0°F-14.4°C 81% 2.0 mph S3.2 kmh S 7.0 mph11.3 kmh 30.44 in1030.8 mb 0.00 in0.0 mm 0.00 in0.0 mm 0.00 in0.0 mm
04:06 AM 10.7°F-11.8°C 5.7°F-14.6°C 80% 3.0 mph S4.8 kmh S 7.0 mph11.3 kmh 30.43 in1030.5 mb 0.00 in0.0 mm 0.00 in0.0 mm 0.00 in0.0 mm
04:08 AM 10.7°F-11.8°C 5.7°F-14.6°C 80% 3.0 mph S4.8 kmh S 8.0 mph12.9 kmh 30.43 in1030.5 mb 0.00 in0.0 mm 0.00 in0.0 mm 0.00 in0.0 mm
04:10 AM 10.8°F-11.8°C 5.8°F-14.6°C 80% 3.0 mph S4.8 kmh S 8.0 mph12.9 kmh 30.43 in1030.5 mb 0.00 in0.0 mm 0.00 in0.0 mm 0.00 in0.0 mm
04:12 AM 10.8°F-11.8°C 5.8°F-14.6°C 80% 3.0 mph S4.8 kmh S 10.0 mph16.1 kmh 30.43 in1030.5 mb 0.00 in0.0 mm 0.00 in0.0 mm 0.00 in0.0 mm
04:14 AM 10.9°F-11.7°C 5.9°F-14.5°C 80% 3.0 mph S4.8 kmh S 10.0 mph16.1 kmh 30.43 in1030.5 mb 0.00 in0.0 mm 0.00 in0.0 mm 0.00 in0.0 mm
04:16 AM 10.9°F-11.7°C 5.9°F-14.5°C 80% 3.0 mph S4.8 kmh S 10.0 mph16.1 kmh 30.43 in1030.5 mb 0.00 in0.0 mm 0.00 in0.0 mm 0.00 in0.0 mm
04:18 AM 10.9°F-11.7°C 5.9°F-14.5°C 80% 4.0 mph S6.4 kmh S 10.0 mph16.1 kmh 30.43 in1030.5 mb 0.00 in0.0 mm 0.00 in0.0 mm 0.00 in0.0 mm
04:20 AM 11.0°F-11.7°C 6.0°F-14.4°C 80% 3.0 mph S4.8 kmh S 10.0 mph16.1 kmh 30.43 in1030.5 mb 0.00 in0.0 mm 0.00 in0.0 mm 0.00 in0.0 mm
04:22 AM 11.0°F-11.7°C 6.0°F-14.4°C 80% 3.0 mph S4.8 kmh S 9.0 mph14.5 kmh 30.43 in1030.5 mb 0.00 in0.0 mm 0.00 in0.0 mm 0.00 in0.0 mm
04:24 AM 11.0°F-11.7°C 6.0°F-14.4°C 80% 3.0 mph S4.8 kmh S 7.0 mph11.3 kmh 30.43 in1030.5 mb 0.00 in0.0 mm 0.00 in0.0 mm 0.00 in0.0 mm
04:26 AM 11.1°F-11.6°C 6.1°F-14.4°C 80% 3.0 mph S4.8 kmh S 5.0 mph8.0 kmh 30.43 in1030.5 mb 0.00 in0.0 mm 0.00 in0.0 mm 0.00 in0.0 mm
04:28 AM 11.1°F-11.6°C 6.1°F-14.4°C 80% 3.0 mph S4.8 kmh S 6.0 mph9.7 kmh 30.43 in1030.5 mb 0.00 in0.0 mm 0.00 in0.0 mm 0.00 in0.0 mm
04:30 AM 11.1°F-11.6°C 6.1°F-14.4°C 80% 3.0 mph S4.8 kmh S 6.0 mph9.7 kmh 30.43 in1030.5 mb 0.00 in0.0 mm 0.00 in0.0 mm 0.00 in0.0 mm
04:32 AM 11.2°F-11.6°C 6.2°F-14.3°C 80% 3.0 mph S4.8 kmh S 6.0 mph9.7 kmh 30.43 in1030.5 mb 0.00 in0.0 mm 0.00 in0.0 mm 0.00 in0.0 mm
04:34 AM 11.2°F-11.6°C 6.5°F-14.2°C 81% 2.0 mph S3.2 kmh S 6.0 mph9.7 kmh 30.43 in1030.5 mb 0.00 in0.0 mm 0.00 in0.0 mm 0.00 in0.0 mm
04:36 AM 11.2°F-11.6°C 6.5°F-14.2°C 81% 3.0 mph S4.8 kmh S 6.0 mph9.7 kmh 30.42 in1030.1 mb 0.00 in0.0 mm 0.00 in0.0 mm 0.00 in0.0 mm
04:38 AM 11.2°F-11.6°C 6.5°F-14.2°C 81% 2.0 mph S3.2 kmh S 5.0 mph8.0 kmh 30.42 in1030.1 mb 0.00 in0.0 mm 0.00 in0.0 mm 0.00 in0.0 mm
04:40 AM 11.2°F-11.6°C 6.5°F-14.2°C 81% 2.0 mph S3.2 kmh S 5.0 mph8.0 kmh 30.42 in1030.1 mb 0.00 in0.0 mm 0.00 in0.0 mm 0.00 in0.0 mm
04:42 AM 11.2°F-11.6°C 6.5°F-14.2°C 81% 2.0 mph SSE3.2 kmh SSE 5.0 mph8.0 kmh 30.42 in1030.1 mb 0.00 in0.0 mm 0.00 in0.0 mm 0.00 in0.0 mm
04:44 AM 11.2°F-11.6°C 6.5°F-14.2°C 81% 2.0 mph SSE3.2 kmh SSE 7.0 mph11.3 kmh 30.42 in1030.1 mb 0.00 in0.0 mm 0.00 in0.0 mm 0.00 in0.0 mm
04:46 AM 11.2°F-11.6°C 6.5°F-14.2°C 81% 3.0 mph SSE4.8 kmh SSE 7.0 mph11.3 kmh 30.42 in1030.1 mb 0.00 in0.0 mm 0.00 in0.0 mm 0.00 in0.0 mm
04:48 AM 11.2°F-11.6°C 6.5°F-14.2°C 81% 2.0 mph S3.2 kmh S 7.0 mph11.3 kmh 30.42 in1030.1 mb 0.00 in0.0 mm 0.00 in0.0 mm 0.00 in0.0 mm
04:50 AM 11.2°F-11.6°C 6.5°F-14.2°C 81% 2.0 mph S3.2 kmh S 7.0 mph11.3 kmh 30.42 in1030.1 mb 0.00 in0.0 mm 0.00 in0.0 mm 0.00 in0.0 mm
04:52 AM 11.2°F-11.6°C 6.5°F-14.2°C 81% 2.0 mph S3.2 kmh S 7.0 mph11.3 kmh 30.41 in1029.8 mb 0.00 in0.0 mm 0.00 in0.0 mm 0.00 in0.0 mm
04:54 AM 11.2°F-11.6°C 6.5°F-14.2°C 81% 2.0 mph S3.2 kmh S 4.0 mph6.4 kmh 30.41 in1029.8 mb 0.00 in0.0 mm 0.00 in0.0 mm 0.00 in0.0 mm
04:56 AM 11.2°F-11.6°C 6.5°F-14.2°C 81% 2.0 mph S3.2 kmh S 4.0 mph6.4 kmh 30.42 in1030.1 mb 0.00 in0.0 mm 0.00 in0.0 mm 0.00 in0.0 mm
04:58 AM 11.2°F-11.6°C 6.5°F-14.2°C 81% 2.0 mph S3.2 kmh S 4.0 mph6.4 kmh 30.41 in1029.8 mb 0.00 in0.0 mm 0.00 in0.0 mm 0.00 in0.0 mm
05:00 AM 11.2°F-11.6°C 6.5°F-14.2°C 81% 2.0 mph S3.2 kmh S 4.0 mph6.4 kmh 30.41 in1029.8 mb 0.00 in0.0 mm 0.00 in0.0 mm 0.00 in0.0 mm
05:02 AM 11.2°F-11.6°C 6.5°F-14.2°C 81% 2.0 mph S3.2 kmh S 4.0 mph6.4 kmh 30.41 in1029.8 mb 0.00 in0.0 mm 0.00 in0.0 mm 0.00 in0.0 mm
05:04 AM 11.2°F-11.6°C 6.5°F-14.2°C 81% 2.0 mph S3.2 kmh S 4.0 mph6.4 kmh 30.41 in1029.8 mb 0.00 in0.0 mm 0.00 in0.0 mm 0.00 in0.0 mm
05:06 AM 11.2°F-11.6°C 6.8°F-14.0°C 82% 2.0 mph S3.2 kmh S 4.0 mph6.4 kmh 30.41 in1029.8 mb 0.00 in0.0 mm 0.00 in0.0 mm 0.00 in0.0 mm
05:08 AM 11.3°F-11.5°C 6.9°F-13.9°C 82% 2.0 mph S3.2 kmh S 4.0 mph6.4 kmh 30.41 in1029.8 mb 0.00 in0.0 mm 0.00 in0.0 mm 0.00 in0.0 mm
05:10 AM 11.3°F-11.5°C 6.9°F-13.9°C 82% 2.0 mph S3.2 kmh S 3.0 mph4.8 kmh 30.41 in1029.8 mb 0.00 in0.0 mm 0.00 in0.0 mm 0.00 in0.0 mm
05:12 AM 11.4°F-11.4°C 7.0°F-13.9°C 82% 2.0 mph S3.2 kmh S 4.0 mph6.4 kmh 30.41 in1029.8 mb 0.00 in0.0 mm 0.00 in0.0 mm 0.00 in0.0 mm
05:14 AM 11.4°F-11.4°C 7.0°F-13.9°C 82% 2.0 mph S3.2 kmh S 4.0 mph6.4 kmh 30.41 in1029.8 mb 0.00 in0.0 mm 0.00 in0.0 mm 0.00 in0.0 mm
05:16 AM 11.4°F-11.4°C 7.0°F-13.9°C 82% 2.0 mph S3.2 kmh S 5.0 mph8.0 kmh 30.41 in1029.8 mb 0.00 in0.0 mm 0.00 in0.0 mm 0.00 in0.0 mm
05:18 AM 11.4°F-11.4°C 7.0°F-13.9°C 82% 2.0 mph S3.2 kmh S 5.0 mph8.0 kmh 30.41 in1029.8 mb 0.00 in0.0 mm 0.00 in0.0 mm 0.00 in0.0 mm
05:20 AM 11.5°F-11.4°C 7.1°F-13.8°C 82% 2.0 mph SSE3.2 kmh SSE 5.0 mph8.0 kmh 30.41 in1029.8 mb 0.00 in0.0 mm 0.00 in0.0 mm 0.00 in0.0 mm
05:22 AM 11.5°F-11.4°C 7.1°F-13.8°C 82% 2.0 mph SE3.2 kmh SE 5.0 mph8.0 kmh 30.41 in1029.8 mb 0.00 in0.0 mm 0.00 in0.0 mm 0.00 in0.0 mm
05:24 AM 11.5°F-11.4°C 7.1°F-13.8°C 82% 2.0 mph SE3.2 kmh SE 5.0 mph8.0 kmh 30.41 in1029.8 mb 0.00 in0.0 mm 0.00 in0.0 mm 0.00 in0.0 mm
05:26 AM 11.6°F-11.3°C 7.2°F-13.8°C 82% 2.0 mph SE3.2 kmh SE 5.0 mph8.0 kmh 30.41 in1029.8 mb 0.00 in0.0 mm 0.00 in0.0 mm 0.00 in0.0 mm
05:28 AM 11.6°F-11.3°C 7.2°F-13.8°C 82% 2.0 mph SE3.2 kmh SE 5.0 mph8.0 kmh 30.41 in1029.8 mb 0.00 in0.0 mm 0.00 in0.0 mm 0.00 in0.0 mm
05:30 AM 11.6°F-11.3°C 7.2°F-13.8°C 82% 2.0 mph SE3.2 kmh SE 5.0 mph8.0 kmh 30.41 in1029.8 mb 0.00 in0.0 mm 0.00 in0.0 mm 0.00 in0.0 mm
05:32 AM 11.6°F-11.3°C 7.2°F-13.8°C 82% 2.0 mph SE3.2 kmh SE 5.0 mph8.0 kmh 30.40 in1029.5 mb 0.00 in0.0 mm 0.00 in0.0 mm 0.00 in0.0 mm
05:34 AM 11.7°F-11.3°C 7.3°F-13.7°C 82% 2.0 mph SE3.2 kmh SE 5.0 mph8.0 kmh 30.40 in1029.5 mb 0.00 in0.0 mm 0.00 in0.0 mm 0.00 in0.0 mm
05:36 AM 11.7°F-11.3°C 7.3°F-13.7°C 82% 2.0 mph SSE3.2 kmh SSE 5.0 mph8.0 kmh 30.40 in1029.5 mb 0.00 in0.0 mm 0.00 in0.0 mm 0.00 in0.0 mm
05:38 AM 11.7°F-11.3°C 7.3°F-13.7°C 82% 2.0 mph S3.2 kmh S 5.0 mph8.0 kmh 30.40 in1029.5 mb 0.00 in0.0 mm 0.00 in0.0 mm 0.00 in0.0 mm
05:40 AM 11.7°F-11.3°C 7.0°F-13.9°C 81% 2.0 mph S3.2 kmh S 5.0 mph8.0 kmh 30.40 in1029.5 mb 0.00 in0.0 mm 0.00 in0.0 mm 0.00 in0.0 mm
05:42 AM 11.7°F-11.3°C 7.0°F-13.9°C 81% 2.0 mph S3.2 kmh S 5.0 mph8.0 kmh 30.40 in1029.5 mb 0.00 in0.0 mm 0.00 in0.0 mm 0.00 in0.0 mm
05:44 AM 11.7°F-11.3°C 7.0°F-13.9°C 81% 2.0 mph S3.2 kmh S 7.0 mph11.3 kmh 30.40 in1029.5 mb 0.00 in0.0 mm 0.00 in0.0 mm 0.00 in0.0 mm
05:46 AM 11.7°F-11.3°C 7.0°F-13.9°C 81% 2.0 mph SSE3.2 kmh SSE 7.0 mph11.3 kmh 30.40 in1029.5 mb 0.00 in0.0 mm 0.00 in0.0 mm 0.00 in0.0 mm
05:48 AM 11.7°F-11.3°C 7.0°F-13.9°C 81% 2.0 mph SSE3.2 kmh SSE 8.0 mph12.9 kmh 30.40 in1029.5 mb 0.00 in0.0 mm 0.00 in0.0 mm 0.00 in0.0 mm
05:50 AM 11.7°F-11.3°C 7.0°F-13.9°C 81% 3.0 mph SSE4.8 kmh SSE 8.0 mph12.9 kmh 30.39 in1029.1 mb 0.00 in0.0 mm 0.00 in0.0 mm 0.00 in0.0 mm
05:52 AM 11.7°F-11.3°C 7.0°F-13.9°C 81% 3.0 mph SSE4.8 kmh SSE 9.0 mph14.5 kmh 30.39 in1029.1 mb 0.00 in0.0 mm 0.00 in0.0 mm 0.00 in0.0 mm
05:54 AM 11.7°F-11.3°C 7.0°F-13.9°C 81% 3.0 mph SSE4.8 kmh SSE 9.0 mph14.5 kmh 30.39 in1029.1 mb 0.00 in0.0 mm 0.00 in0.0 mm 0.00 in0.0 mm
05:56 AM 11.7°F-11.3°C 7.0°F-13.9°C 81% 3.0 mph SSE4.8 kmh SSE 9.0 mph14.5 kmh 30.39 in1029.1 mb 0.00 in0.0 mm 0.00 in0.0 mm 0.00 in0.0 mm
05:58 AM 11.7°F-11.3°C 7.0°F-13.9°C 81% 3.0 mph SSE4.8 kmh SSE 9.0 mph14.5 kmh 30.39 in1029.1 mb 0.00 in0.0 mm 0.00 in0.0 mm 0.00 in0.0 mm
06:00 AM 11.7°F-11.3°C 7.0°F-13.9°C 81% 3.0 mph S4.8 kmh S 9.0 mph14.5 kmh 30.39 in1029.1 mb 0.00 in0.0 mm 0.00 in0.0 mm 0.00 in0.0 mm
06:02 AM 11.7°F-11.3°C 7.0°F-13.9°C 81% 3.0 mph SSE4.8 kmh SSE 9.0 mph14.5 kmh 30.39 in1029.1 mb 0.00 in0.0 mm 0.00 in0.0 mm 0.00 in0.0 mm
06:04 AM 11.7°F-11.3°C 6.7°F-14.1°C 80% 3.0 mph SSE4.8 kmh SSE 9.0 mph14.5 kmh 30.39 in1029.1 mb 0.00 in0.0 mm 0.00 in0.0 mm 0.00 in0.0 mm
06:06 AM 11.7°F-11.3°C 7.0°F-13.9°C 81% 3.0 mph SSE4.8 kmh SSE 9.0 mph14.5 kmh 30.39 in1029.1 mb 0.00 in0.0 mm 0.00 in0.0 mm 0.00 in0.0 mm
06:08 AM 11.7°F-11.3°C 6.7°F-14.1°C 80% 3.0 mph SE4.8 kmh SE 9.0 mph14.5 kmh 30.39 in1029.1 mb 0.00 in0.0 mm 0.00 in0.0 mm 0.00 in0.0 mm
06:10 AM 11.7°F-11.3°C 6.7°F-14.1°C 80% 3.0 mph SE4.8 kmh SE 9.0 mph14.5 kmh 30.38 in1028.8 mb 0.00 in0.0 mm 0.00 in0.0 mm 0.00 in0.0 mm
06:12 AM 11.7°F-11.3°C 7.0°F-13.9°C 81% 3.0 mph SE4.8 kmh SE 9.0 mph14.5 kmh 30.38 in1028.8 mb 0.00 in0.0 mm 0.00 in0.0 mm 0.00 in0.0 mm
06:14 AM 11.7°F-11.3°C 6.7°F-14.1°C 80% 3.0 mph SE4.8 kmh SE 9.0 mph14.5 kmh 30.38 in1028.8 mb 0.00 in0.0 mm 0.00 in0.0 mm 0.00 in0.0 mm
06:16 AM 11.7°F-11.3°C 6.7°F-14.1°C 80% 3.0 mph SSE4.8 kmh SSE 8.0 mph12.9 kmh 30.38 in1028.8 mb 0.00 in0.0 mm 0.00 in0.0 mm 0.00 in0.0 mm
06:18 AM 11.7°F-11.3°C 6.7°F-14.1°C 80% 3.0 mph SE4.8 kmh SE 8.0 mph12.9 kmh 30.38 in1028.8 mb 0.00 in0.0 mm 0.00 in0.0 mm 0.00 in0.0 mm
06:20 AM 11.7°F-11.3°C 6.7°F-14.1°C 80% 3.0 mph SE4.8 kmh SE 8.0 mph12.9 kmh 30.38 in1028.8 mb 0.00 in0.0 mm 0.00 in0.0 mm 0.00 in0.0 mm
06:22 AM 11.7°F-11.3°C 6.7°F-14.1°C 80% 3.0 mph SE4.8 kmh SE 8.0 mph12.9 kmh 30.38 in1028.8 mb 0.00 in0.0 mm 0.00 in0.0 mm 0.00 in0.0 mm
06:24 AM 11.7°F-11.3°C 6.7°F-14.1°C 80% 3.0 mph SE4.8 kmh SE 8.0 mph12.9 kmh 30.37 in1028.4 mb 0.00 in0.0 mm 0.00 in0.0 mm 0.00 in0.0 mm
06:26 AM 11.7°F-11.3°C 6.7°F-14.1°C 80% 3.0 mph SE4.8 kmh SE 12.0 mph19.3 kmh 30.37 in1028.4 mb 0.00 in0.0 mm 0.00 in0.0 mm 0.00 in0.0 mm
06:28 AM 11.6°F-11.3°C 6.6°F-14.1°C 80% 3.0 mph SSE4.8 kmh SSE 12.0 mph19.3 kmh 30.37 in1028.4 mb 0.00 in0.0 mm 0.00 in0.0 mm 0.00 in0.0 mm
06:30 AM 11.6°F-11.3°C 6.6°F-14.1°C 80% 4.0 mph SSE6.4 kmh SSE 12.0 mph19.3 kmh 30.37 in1028.4 mb 0.00 in0.0 mm 0.00 in0.0 mm 0.00 in0.0 mm
06:32 AM 11.6°F-11.3°C 6.6°F-14.1°C 80% 4.0 mph SSE6.4 kmh SSE 12.0 mph19.3 kmh 30.37 in1028.4 mb 0.00 in0.0 mm 0.00 in0.0 mm 0.00 in0.0 mm
06:34 AM 11.7°F-11.3°C 6.7°F-14.1°C 80% 4.0 mph SSE6.4 kmh SSE 12.0 mph19.3 kmh 30.37 in1028.4 mb 0.00 in0.0 mm 0.00 in0.0 mm 0.00 in0.0 mm
06:40 AM 11.7°F-11.3°C 6.7°F-14.1°C 80% 4.0 mph SE6.4 kmh SE 3.0 mph4.8 kmh 30.37 in1028.4 mb 0.00 in0.0 mm 0.00 in0.0 mm 0.00 in0.0 mm
06:42 AM 11.7°F-11.3°C 6.7°F-14.1°C 80% 4.0 mph SE6.4 kmh SE 5.0 mph8.0 kmh 30.36 in1028.1 mb 0.00 in0.0 mm 0.00 in0.0 mm 0.00 in0.0 mm
06:44 AM 11.7°F-11.3°C 6.7°F-14.1°C 80% 4.0 mph SSE6.4 kmh SSE 14.0 mph22.5 kmh 30.36 in1028.1 mb 0.00 in0.0 mm 0.00 in0.0 mm 0.00 in0.0 mm
06:46 AM 11.7°F-11.3°C 6.7°F-14.1°C 80% 4.0 mph SSE6.4 kmh SSE 14.0 mph22.5 kmh 30.37 in1028.4 mb 0.00 in0.0 mm 0.00 in0.0 mm 0.00 in0.0 mm
06:48 AM 11.7°F-11.3°C 6.7°F-14.1°C 80% 5.0 mph SSE8.0 kmh SSE 14.0 mph22.5 kmh 30.36 in1028.1 mb 0.00 in0.0 mm 0.00 in0.0 mm 0.00 in0.0 mm
06:50 AM 11.7°F-11.3°C 6.4°F-14.2°C 79% 5.0 mph SSE8.0 kmh SSE 14.0 mph22.5 kmh 30.37 in1028.4 mb 0.00 in0.0 mm 0.00 in0.0 mm 0.00 in0.0 mm
06:52 AM 11.7°F-11.3°C 6.4°F-14.2°C 79% 5.0 mph SSE8.0 kmh SSE 14.0 mph22.5 kmh 30.36 in1028.1 mb 0.00 in0.0 mm 0.00 in0.0 mm 0.00 in0.0 mm
06:54 AM 11.7°F-11.3°C 6.4°F-14.2°C 79% 6.0 mph SSE9.7 kmh SSE 14.0 mph22.5 kmh 30.36 in1028.1 mb 0.00 in0.0 mm 0.00 in0.0 mm 0.00 in0.0 mm
06:56 AM 11.7°F-11.3°C 6.4°F-14.2°C 79% 6.0 mph SSE9.7 kmh SSE 14.0 mph22.5 kmh 30.36 in1028.1 mb 0.00 in0.0 mm 0.00 in0.0 mm 0.00 in0.0 mm
06:58 AM 11.7°F-11.3°C 6.4°F-14.2°C 79% 5.0 mph SSE8.0 kmh SSE 12.0 mph19.3 kmh 30.36 in1028.1 mb 0.00 in0.0 mm 0.00 in0.0 mm 0.00 in0.0 mm
07:00 AM 11.7°F-11.3°C 6.4°F-14.2°C 79% 5.0 mph SSE8.0 kmh SSE 12.0 mph19.3 kmh 30.36 in1028.1 mb 0.00 in0.0 mm 0.00 in0.0 mm 0.00 in0.0 mm
07:02 AM 11.7°F-11.3°C 6.7°F-14.1°C 80% 6.0 mph SSE9.7 kmh SSE 12.0 mph19.3 kmh 30.36 in1028.1 mb 0.00 in0.0 mm 0.00 in0.0 mm 0.00 in0.0 mm
07:04 AM 11.8°F-11.2°C 6.8°F-14.0°C 80% 5.0 mph SSE8.0 kmh SSE 12.0 mph19.3 kmh 30.36 in1028.1 mb 0.00 in0.0 mm 0.00 in0.0 mm 0.00 in0.0 mm
07:06 AM 11.8°F-11.2°C 6.8°F-14.0°C 80% 6.0 mph SSE9.7 kmh SSE 12.0 mph19.3 kmh 30.36 in1028.1 mb 0.00 in0.0 mm 0.00 in0.0 mm 0.00 in0.0 mm
07:08 AM 11.9°F-11.2°C 6.9°F-13.9°C 80% 5.0 mph S8.0 kmh S 12.0 mph19.3 kmh 30.36 in1028.1 mb 0.00 in0.0 mm 0.00 in0.0 mm 0.00 in0.0 mm
07:10 AM 11.9°F-11.2°C 6.9°F-13.9°C 80% 6.0 mph SSE9.7 kmh SSE 12.0 mph19.3 kmh 30.36 in1028.1 mb 0.00 in0.0 mm 0.00 in0.0 mm 0.00 in0.0 mm
07:12 AM 11.9°F-11.2°C 6.6°F-14.1°C 79% 5.0 mph SSE8.0 kmh SSE 12.0 mph19.3 kmh 30.36 in1028.1 mb 0.00 in0.0 mm 0.00 in0.0 mm 0.00 in0.0 mm
07:14 AM 11.9°F-11.2°C 6.6°F-14.1°C 79% 5.0 mph SSE8.0 kmh SSE 11.0 mph17.7 kmh 30.35 in1027.8 mb 0.00 in0.0 mm 0.00 in0.0 mm 0.00 in0.0 mm
07:16 AM 12.0°F-11.1°C 7.0°F-13.9°C 80% 5.0 mph SSE8.0 kmh SSE 11.0 mph17.7 kmh 30.35 in1027.8 mb 0.00 in0.0 mm 0.00 in0.0 mm 0.00 in0.0 mm
07:18 AM 12.0°F-11.1°C 6.7°F-14.1°C 79% 5.0 mph SSE8.0 kmh SSE 10.0 mph16.1 kmh 30.35 in1027.8 mb 0.00 in0.0 mm 0.00 in0.0 mm 0.00 in0.0 mm
07:20 AM 12.1°F-11.1°C 6.8°F-14.0°C 79% 5.0 mph SSE8.0 kmh SSE 9.0 mph14.5 kmh 30.35 in1027.8 mb 0.00 in0.0 mm 0.00 in0.0 mm 0.00 in0.0 mm
07:22 AM 12.2°F-11.0°C 6.9°F-13.9°C 79% 5.0 mph SSE8.0 kmh SSE 12.0 mph19.3 kmh 30.35 in1027.8 mb 0.00 in0.0 mm 0.00 in0.0 mm 0.00 in0.0 mm
07:24 AM 12.3°F-10.9°C 7.0°F-13.9°C 79% 5.0 mph SSE8.0 kmh SSE 12.0 mph19.3 kmh 30.35 in1027.8 mb 0.00 in0.0 mm 0.00 in0.0 mm 0.00 in0.0 mm
07:26 AM 12.3°F-10.9°C 7.0°F-13.9°C 79% 5.0 mph SSE8.0 kmh SSE 12.0 mph19.3 kmh 30.35 in1027.8 mb 0.00 in0.0 mm 0.00 in0.0 mm 0.00 in0.0 mm
07:28 AM 12.4°F-10.9°C 7.1°F-13.8°C 79% 5.0 mph SSE8.0 kmh SSE 12.0 mph19.3 kmh 30.35 in1027.8 mb 0.00 in0.0 mm 0.00 in0.0 mm 0.00 in0.0 mm
07:30 AM 12.5°F-10.8°C 7.2°F-13.8°C 79% 5.0 mph SSE8.0 kmh SSE 12.0 mph19.3 kmh 30.35 in1027.8 mb 0.00 in0.0 mm 0.00 in0.0 mm 0.00 in0.0 mm
07:32 AM 12.6°F-10.8°C 7.3°F-13.7°C 79% 5.0 mph S8.0 kmh S 12.0 mph19.3 kmh 30.35 in1027.8 mb 0.00 in0.0 mm 0.00 in0.0 mm 0.00 in0.0 mm
07:34 AM 12.7°F-10.7°C 7.4°F-13.7°C 79% 5.0 mph SSE8.0 kmh SSE 13.0 mph20.9 kmh 30.35 in1027.8 mb 0.00 in0.0 mm 0.00 in0.0 mm 0.00 in0.0 mm
07:36 AM 12.8°F-10.7°C 7.5°F-13.6°C 79% 6.0 mph SSE9.7 kmh SSE 13.0 mph20.9 kmh 30.35 in1027.8 mb 0.00 in0.0 mm 0.00 in0.0 mm 0.00 in0.0 mm
07:38 AM 12.9°F-10.6°C 7.3°F-13.7°C 78% 7.0 mph SSE11.3 kmh SSE 15.0 mph24.1 kmh 30.35 in1027.8 mb 0.00 in0.0 mm 0.00 in0.0 mm 0.00 in0.0 mm
07:40 AM 13.0°F-10.6°C 7.4°F-13.7°C 78% 7.0 mph SSE11.3 kmh SSE 15.0 mph24.1 kmh 30.35 in1027.8 mb 0.00 in0.0 mm 0.00 in0.0 mm 0.00 in0.0 mm
07:42 AM 13.1°F-10.5°C 7.5°F-13.6°C 78% 6.0 mph SSE9.7 kmh SSE 15.0 mph24.1 kmh 30.35 in1027.8 mb 0.00 in0.0 mm 0.00 in0.0 mm 0.00 in0.0 mm
07:44 AM 13.2°F-10.4°C 7.6°F-13.6°C 78% 6.0 mph SSE9.7 kmh SSE 15.0 mph24.1 kmh 30.34 in1027.4 mb 0.00 in0.0 mm 0.00 in0.0 mm 0.00 in0.0 mm
07:46 AM 13.2°F-10.4°C 7.3°F-13.7°C 77% 6.0 mph SSE9.7 kmh SSE 15.0 mph24.1 kmh 30.34 in1027.4 mb 0.00 in0.0 mm 0.00 in0.0 mm 0.00 in0.0 mm
07:48 AM 13.3°F-10.4°C 7.4°F-13.7°C 77% 6.0 mph SSE9.7 kmh SSE 14.0 mph22.5 kmh 30.34 in1027.4 mb 0.00 in0.0 mm 0.00 in0.0 mm 0.00 in0.0 mm
07:50 AM 13.4°F-10.3°C 7.5°F-13.6°C 77% 6.0 mph SSE9.7 kmh SSE 16.0 mph25.7 kmh 30.34 in1027.4 mb 0.00 in0.0 mm 0.00 in0.0 mm 0.00 in0.0 mm
07:52 AM 13.5°F-10.3°C 7.6°F-13.6°C 77% 7.0 mph SSE11.3 kmh SSE 16.0 mph25.7 kmh 30.34 in1027.4 mb 0.00 in0.0 mm 0.00 in0.0 mm 0.00 in0.0 mm
07:54 AM 13.5°F-10.3°C 7.6°F-13.6°C 77% 7.0 mph SSE11.3 kmh SSE 16.0 mph25.7 kmh 30.34 in1027.4 mb 0.00 in0.0 mm 0.00 in0.0 mm 0.00 in0.0 mm
07:56 AM 13.6°F-10.2°C 7.7°F-13.5°C 77% 7.0 mph SSE11.3 kmh SSE 16.0 mph25.7 kmh 30.34 in1027.4 mb 0.00 in0.0 mm 0.00 in0.0 mm 0.00 in0.0 mm
07:58 AM 13.7°F-10.2°C 7.8°F-13.4°C 77% 6.0 mph SSE9.7 kmh SSE 16.0 mph25.7 kmh 30.34 in1027.4 mb 0.00 in0.0 mm 0.00 in0.0 mm 0.00 in0.0 mm
08:00 AM 13.7°F-10.2°C 7.8°F-13.4°C 77% 6.0 mph SSE9.7 kmh SSE 14.0 mph22.5 kmh 30.34 in1027.4 mb 0.00 in0.0 mm 0.00 in0.0 mm 0.00 in0.0 mm
08:02 AM 13.7°F-10.2°C 7.8°F-13.4°C 77% 6.0 mph SSE9.7 kmh SSE 14.0 mph22.5 kmh 30.34 in1027.4 mb 0.00 in0.0 mm 0.00 in0.0 mm 0.00 in0.0 mm
08:04 AM 13.8°F-10.1°C 7.9°F-13.4°C 77% 5.0 mph SSE8.0 kmh SSE 11.0 mph17.7 kmh 30.34 in1027.4 mb 0.00 in0.0 mm 0.00 in0.0 mm 0.00 in0.0 mm
08:06 AM 13.9°F-10.1°C 8.0°F-13.3°C 77% 5.0 mph SSE8.0 kmh SSE 11.0 mph17.7 kmh 30.35 in1027.8 mb 0.00 in0.0 mm 0.00 in0.0 mm 0.00 in0.0 mm
08:08 AM 14.0°F-10.0°C 7.8°F-13.4°C 76% 5.0 mph SSE8.0 kmh SSE 12.0 mph19.3 kmh 30.34 in1027.4 mb 0.00 in0.0 mm 0.00 in0.0 mm 0.00 in0.0 mm
08:10 AM 14.1°F-9.9°C 7.9°F-13.4°C 76% 6.0 mph SSE9.7 kmh SSE 13.0 mph20.9 kmh 30.34 in1027.4 mb 0.00 in0.0 mm 0.00 in0.0 mm 0.00 in0.0 mm
08:12 AM 14.1°F-9.9°C 7.9°F-13.4°C 76% 6.0 mph S9.7 kmh S 16.0 mph25.7 kmh 30.34 in1027.4 mb 0.00 in0.0 mm 0.00 in0.0 mm 0.00 in0.0 mm
08:14 AM 14.2°F-9.9°C 8.0°F-13.3°C 76% 7.0 mph S11.3 kmh S 16.0 mph25.7 kmh 30.35 in1027.8 mb 0.00 in0.0 mm 0.00 in0.0 mm 0.00 in0.0 mm
08:16 AM 14.4°F-9.8°C 8.2°F-13.2°C 76% 7.0 mph S11.3 kmh S 16.0 mph25.7 kmh 30.35 in1027.8 mb 0.00 in0.0 mm 0.00 in0.0 mm 0.00 in0.0 mm
08:18 AM 14.5°F-9.7°C 8.3°F-13.2°C 76% 7.0 mph S11.3 kmh S 16.0 mph25.7 kmh 30.35 in1027.8 mb 0.00 in0.0 mm 0.00 in0.0 mm 0.00 in0.0 mm
08:20 AM 14.6°F-9.7°C 8.4°F-13.1°C 76% 7.0 mph S11.3 kmh S 16.0 mph25.7 kmh 30.35 in1027.8 mb 0.00 in0.0 mm 0.00 in0.0 mm 0.00 in0.0 mm
08:22 AM 14.8°F-9.6°C 8.3°F-13.2°C 75% 6.0 mph S9.7 kmh S 14.0 mph22.5 kmh 30.34 in1027.4 mb 0.00 in0.0 mm 0.00 in0.0 mm 0.00 in0.0 mm
08:24 AM 14.9°F-9.5°C 8.4°F-13.1°C 75% 6.0 mph S9.7 kmh S 12.0 mph19.3 kmh 30.34 in1027.4 mb 0.00 in0.0 mm 0.00 in0.0 mm 0.00 in0.0 mm
08:26 AM 14.9°F-9.5°C 8.4°F-13.1°C 75% 6.0 mph S9.7 kmh S 12.0 mph19.3 kmh 30.34 in1027.4 mb 0.00 in0.0 mm 0.00 in0.0 mm 0.00 in0.0 mm
08:28 AM 15.1°F-9.4°C 8.6°F-13.0°C 75% 6.0 mph S9.7 kmh S 12.0 mph19.3 kmh 30.35 in1027.8 mb 0.00 in0.0 mm 0.00 in0.0 mm 0.00 in0.0 mm
08:30 AM 15.2°F-9.3°C 8.7°F-12.9°C 75% 7.0 mph S11.3 kmh S 14.0 mph22.5 kmh 30.35 in1027.8 mb 0.00 in0.0 mm 0.00 in0.0 mm 0.00 in0.0 mm
08:32 AM 15.2°F-9.3°C 8.4°F-13.1°C 74% 6.0 mph S9.7 kmh S 14.0 mph22.5 kmh 30.35 in1027.8 mb 0.00 in0.0 mm 0.00 in0.0 mm 0.00 in0.0 mm
08:34 AM 15.3°F-9.3°C 8.5°F-13.1°C 74% 6.0 mph S9.7 kmh S 14.0 mph22.5 kmh 30.35 in1027.8 mb 0.00 in0.0 mm 0.00 in0.0 mm 0.00 in0.0 mm
08:36 AM 15.3°F-9.3°C 8.5°F-13.1°C 74% 6.0 mph S9.7 kmh S 14.0 mph22.5 kmh 30.35 in1027.8 mb 0.00 in0.0 mm 0.00 in0.0 mm 0.00 in0.0 mm
08:38 AM 15.3°F-9.3°C 8.5°F-13.1°C 74% 7.0 mph S11.3 kmh S 14.0 mph22.5 kmh 30.35 in1027.8 mb 0.00 in0.0 mm 0.00 in0.0 mm 0.00 in0.0 mm
08:40 AM 15.4°F-9.2°C 8.6°F-13.0°C 74% 6.0 mph SSE9.7 kmh SSE 13.0 mph20.9 kmh 30.35 in1027.8 mb 0.00 in0.0 mm 0.00 in0.0 mm 0.00 in0.0 mm
08:42 AM 15.5°F-9.2°C 8.7°F-12.9°C 74% 6.0 mph S9.7 kmh S 13.0 mph20.9 kmh 30.35 in1027.8 mb 0.00 in0.0 mm 0.00 in0.0 mm 0.00 in0.0 mm
08:44 AM 15.6°F-9.1°C 8.8°F-12.9°C 74% 6.0 mph S9.7 kmh S 12.0 mph19.3 kmh 30.35 in1027.8 mb 0.00 in0.0 mm 0.00 in0.0 mm 0.00 in0.0 mm
08:46 AM 15.7°F-9.1°C 8.9°F-12.8°C 74% 6.0 mph S9.7 kmh S 12.0 mph19.3 kmh 30.35 in1027.8 mb 0.00 in0.0 mm 0.00 in0.0 mm 0.00 in0.0 mm
08:48 AM 15.8°F-9.0°C 9.3°F-12.6°C 75% 6.0 mph S9.7 kmh S 13.0 mph20.9 kmh 30.35 in1027.8 mb 0.00 in0.0 mm 0.00 in0.0 mm 0.00 in0.0 mm
08:50 AM 15.9°F-8.9°C 9.1°F-12.7°C 74% 7.0 mph S11.3 kmh S 13.0 mph20.9 kmh 30.36 in1028.1 mb 0.00 in0.0 mm 0.00 in0.0 mm 0.00 in0.0 mm
08:52 AM 16.0°F-8.9°C 9.2°F-12.7°C 74% 7.0 mph S11.3 kmh S 13.0 mph20.9 kmh 30.36 in1028.1 mb 0.00 in0.0 mm 0.00 in0.0 mm 0.00 in0.0 mm
08:54 AM 16.1°F-8.8°C 9.3°F-12.6°C 74% 7.0 mph S11.3 kmh S 15.0 mph24.1 kmh 30.36 in1028.1 mb 0.00 in0.0 mm 0.00 in0.0 mm 0.00 in0.0 mm
08:56 AM 16.3°F-8.7°C 9.2°F-12.7°C 73% 7.0 mph S11.3 kmh S 17.0 mph27.4 kmh 30.36 in1028.1 mb 0.00 in0.0 mm 0.00 in0.0 mm 0.00 in0.0 mm
08:58 AM 16.4°F-8.7°C 9.6°F-12.4°C 74% 8.0 mph S12.9 kmh S 17.0 mph27.4 kmh 30.36 in1028.1 mb 0.00 in0.0 mm 0.00 in0.0 mm 0.00 in0.0 mm
09:00 AM 16.5°F-8.6°C 9.4°F-12.6°C 73% 8.0 mph S12.9 kmh S 17.0 mph27.4 kmh 30.36 in1028.1 mb 0.00 in0.0 mm 0.00 in0.0 mm 0.00 in0.0 mm
09:02 AM 16.5°F-8.6°C 9.0°F-12.8°C 72% 9.0 mph S14.5 kmh S 17.0 mph27.4 kmh 30.36 in1028.1 mb 0.00 in0.0 mm 0.00 in0.0 mm 0.00 in0.0 mm
09:04 AM 16.6°F-8.6°C 9.1°F-12.7°C 72% 8.0 mph S12.9 kmh S 17.0 mph27.4 kmh 30.36 in1028.1 mb 0.00 in0.0 mm 0.00 in0.0 mm 0.00 in0.0 mm
09:06 AM 16.5°F-8.6°C 9.0°F-12.8°C 72% 9.0 mph S14.5 kmh S 18.0 mph29.0 kmh 30.36 in1028.1 mb 0.00 in0.0 mm 0.00 in0.0 mm 0.00 in0.0 mm
09:14 AM 16.6°F-8.6°C 9.4°F-12.6°C 73% 9.0 mph SE14.5 kmh SE 9.0 mph14.5 kmh 30.37 in1028.4 mb 0.00 in0.0 mm 0.00 in0.0 mm 0.00 in0.0 mm
09:16 AM 16.8°F-8.4°C 9.6°F-12.4°C 73% 9.0 mph SSE14.5 kmh SSE 14.0 mph22.5 kmh 30.38 in1028.8 mb 0.00 in0.0 mm 0.00 in0.0 mm 0.00 in0.0 mm
09:18 AM 17.0°F-8.3°C 9.8°F-12.3°C 73% 8.0 mph SSE12.9 kmh SSE 14.0 mph22.5 kmh 30.37 in1028.4 mb 0.00 in0.0 mm 0.00 in0.0 mm 0.00 in0.0 mm
09:20 AM 17.0°F-8.3°C 9.8°F-12.3°C 73% 9.0 mph SSE14.5 kmh SSE 17.0 mph27.4 kmh 30.37 in1028.4 mb 0.00 in0.0 mm 0.00 in0.0 mm 0.00 in0.0 mm
09:22 AM 17.0°F-8.3°C 9.5°F-12.5°C 72% 10.0 mph SSE16.1 kmh SSE 17.0 mph27.4 kmh 30.37 in1028.4 mb 0.00 in0.0 mm 0.00 in0.0 mm 0.00 in0.0 mm
09:24 AM 17.2°F-8.2°C 9.7°F-12.4°C 72% 9.0 mph S14.5 kmh S 17.0 mph27.4 kmh 30.37 in1028.4 mb 0.00 in0.0 mm 0.00 in0.0 mm 0.00 in0.0 mm
09:26 AM 17.3°F-8.2°C 9.8°F-12.3°C 72% 9.0 mph S14.5 kmh S 20.0 mph32.2 kmh 30.37 in1028.4 mb 0.00 in0.0 mm 0.00 in0.0 mm 0.00 in0.0 mm
09:28 AM 17.4°F-8.1°C 10.2°F-12.1°C 73% 8.0 mph S12.9 kmh S 20.0 mph32.2 kmh 30.37 in1028.4 mb 0.00 in0.0 mm 0.00 in0.0 mm 0.00 in0.0 mm
09:30 AM 17.5°F-8.1°C 10.0°F-12.2°C 72% 8.0 mph S12.9 kmh S 20.0 mph32.2 kmh 30.37 in1028.4 mb 0.00 in0.0 mm 0.00 in0.0 mm 0.00 in0.0 mm
09:32 AM 17.5°F-8.1°C 10.0°F-12.2°C 72% 7.0 mph S11.3 kmh S 20.0 mph32.2 kmh 30.37 in1028.4 mb 0.00 in0.0 mm 0.00 in0.0 mm 0.00 in0.0 mm
09:34 AM 17.7°F-7.9°C 10.5°F-11.9°C 73% 7.0 mph S11.3 kmh S 20.0 mph32.2 kmh 30.37 in1028.4 mb 0.00 in0.0 mm 0.00 in0.0 mm 0.00 in0.0 mm
09:36 AM 17.8°F-7.9°C 10.6°F-11.9°C 73% 7.0 mph S11.3 kmh S 14.0 mph22.5 kmh 30.37 in1028.4 mb 0.00 in0.0 mm 0.00 in0.0 mm 0.00 in0.0 mm
09:38 AM 17.9°F-7.8°C 10.1°F-12.2°C 71% 7.0 mph S11.3 kmh S 13.0 mph20.9 kmh 30.37 in1028.4 mb 0.00 in0.0 mm 0.00 in0.0 mm 0.00 in0.0 mm
09:40 AM 17.9°F-7.8°C 10.1°F-12.2°C 71% 8.0 mph S12.9 kmh S 17.0 mph27.4 kmh 30.37 in1028.4 mb 0.00 in0.0 mm 0.00 in0.0 mm 0.00 in0.0 mm
09:42 AM 17.9°F-7.8°C 9.8°F-12.3°C 70% 8.0 mph S12.9 kmh S 17.0 mph27.4 kmh 30.37 in1028.4 mb 0.00 in0.0 mm 0.00 in0.0 mm 0.00 in0.0 mm
09:44 AM 17.9°F-7.8°C 9.4°F-12.6°C 69% 9.0 mph S14.5 kmh S 17.0 mph27.4 kmh 30.38 in1028.8 mb 0.00 in0.0 mm 0.00 in0.0 mm 0.00 in0.0 mm
09:46 AM 17.9°F-7.8°C 9.4°F-12.6°C 69% 9.0 mph S14.5 kmh S 17.0 mph27.4 kmh 30.38 in1028.8 mb 0.00 in0.0 mm 0.00 in0.0 mm 0.00 in0.0 mm
09:48 AM 17.9°F-7.8°C 9.8°F-12.3°C 70% 9.0 mph S14.5 kmh S 17.0 mph27.4 kmh 30.38 in1028.8 mb 0.00 in0.0 mm 0.00 in0.0 mm 0.00 in0.0 mm
09:50 AM 17.9°F-7.8°C 9.8°F-12.3°C 70% 9.0 mph S14.5 kmh S 16.0 mph25.7 kmh 30.38 in1028.8 mb 0.00 in0.0 mm 0.00 in0.0 mm 0.00 in0.0 mm
09:52 AM 18.0°F-7.8°C 9.9°F-12.3°C 70% 9.0 mph S14.5 kmh S 16.0 mph25.7 kmh 30.38 in1028.8 mb 0.00 in0.0 mm 0.00 in0.0 mm 0.00 in0.0 mm
09:54 AM 18.1°F-7.7°C 10.3°F-12.1°C 71% 8.0 mph S12.9 kmh S 14.0 mph22.5 kmh 30.38 in1028.8 mb 0.00 in0.0 mm 0.00 in0.0 mm 0.00 in0.0 mm
09:58 AM 18.2°F-7.7°C 10.1°F-12.2°C 70% 7.0 mph S11.3 kmh S 13.0 mph20.9 kmh 30.38 in1028.8 mb 0.00 in0.0 mm 0.00 in0.0 mm 0.00 in0.0 mm
10:00 AM 18.4°F-7.6°C 10.6°F-11.9°C 71% 7.0 mph S11.3 kmh S 14.0 mph22.5 kmh 30.38 in1028.8 mb 0.00 in0.0 mm 0.00 in0.0 mm 0.00 in0.0 mm
10:02 AM 18.6°F-7.4°C 10.4°F-12.0°C 70% 7.0 mph S11.3 kmh S 14.0 mph22.5 kmh 30.38 in1028.8 mb 0.00 in0.0 mm 0.00 in0.0 mm 0.00 in0.0 mm
10:04 AM 18.7°F-7.4°C 10.2°F-12.1°C 69% 8.0 mph S12.9 kmh S 17.0 mph27.4 kmh 30.38 in1028.8 mb 0.00 in0.0 mm 0.00 in0.0 mm 0.00 in0.0 mm
10:06 AM 18.8°F-7.3°C 10.0°F-12.2°C 68% 8.0 mph S12.9 kmh S 17.0 mph27.4 kmh 30.38 in1028.8 mb 0.00 in0.0 mm 0.00 in0.0 mm 0.00 in0.0 mm
10:08 AM 18.8°F-7.3°C 10.0°F-12.2°C 68% 9.0 mph S14.5 kmh S 19.0 mph30.6 kmh 30.37 in1028.4 mb 0.00 in0.0 mm 0.00 in0.0 mm 0.00 in0.0 mm
10:10 AM 18.9°F-7.3°C 10.1°F-12.2°C 68% 9.0 mph S14.5 kmh S 19.0 mph30.6 kmh 30.37 in1028.4 mb 0.00 in0.0 mm 0.00 in0.0 mm 0.00 in0.0 mm
10:12 AM 18.9°F-7.3°C 10.1°F-12.2°C 68% 9.0 mph S14.5 kmh S 19.0 mph30.6 kmh 30.37 in1028.4 mb 0.00 in0.0 mm 0.00 in0.0 mm 0.00 in0.0 mm
10:14 AM 19.1°F-7.2°C 10.3°F-12.1°C 68% 9.0 mph S14.5 kmh S 19.0 mph30.6 kmh 30.36 in1028.1 mb 0.00 in0.0 mm 0.00 in0.0 mm 0.00 in0.0 mm
10:16 AM 19.1°F-7.2°C 10.3°F-12.1°C 68% 8.0 mph S12.9 kmh S 19.0 mph30.6 kmh 30.36 in1028.1 mb 0.00 in0.0 mm 0.00 in0.0 mm 0.00 in0.0 mm
10:18 AM 19.1°F-7.2°C 10.3°F-12.1°C 68% 8.0 mph S12.9 kmh S 14.0 mph22.5 kmh 30.36 in1028.1 mb 0.00 in0.0 mm 0.00 in0.0 mm 0.00 in0.0 mm
10:20 AM 19.1°F-7.2°C 9.9°F-12.3°C 67% 8.0 mph S12.9 kmh S 17.0 mph27.4 kmh 30.36 in1028.1 mb 0.00 in0.0 mm 0.00 in0.0 mm 0.00 in0.0 mm
10:22 AM 19.1°F-7.2°C 9.9°F-12.3°C 67% 8.0 mph S12.9 kmh S 17.0 mph27.4 kmh 30.36 in1028.1 mb 0.00 in0.0 mm 0.00 in0.0 mm 0.00 in0.0 mm
10:24 AM 19.3°F-7.1°C 10.1°F-12.2°C 67% 8.0 mph S12.9 kmh S 17.0 mph27.4 kmh 30.36 in1028.1 mb 0.00 in0.0 mm 0.00 in0.0 mm 0.00 in0.0 mm
10:26 AM 19.3°F-7.1°C 10.5°F-11.9°C 68% 9.0 mph S14.5 kmh S 18.0 mph29.0 kmh 30.35 in1027.8 mb 0.00 in0.0 mm 0.00 in0.0 mm 0.00 in0.0 mm
10:28 AM 19.3°F-7.1°C 9.8°F-12.3°C 66% 9.0 mph S14.5 kmh S 18.0 mph29.0 kmh 30.35 in1027.8 mb 0.00 in0.0 mm 0.00 in0.0 mm 0.00 in0.0 mm
10:30 AM 19.3°F-7.1°C 9.8°F-12.3°C 66% 9.0 mph S14.5 kmh S 20.0 mph32.2 kmh 30.35 in1027.8 mb 0.00 in0.0 mm 0.00 in0.0 mm 0.00 in0.0 mm
10:32 AM 19.4°F-7.0°C 9.9°F-12.3°C 66% 9.0 mph S14.5 kmh S 20.0 mph32.2 kmh 30.35 in1027.8 mb 0.00 in0.0 mm 0.00 in0.0 mm 0.00 in0.0 mm
10:34 AM 19.4°F-7.0°C 10.2°F-12.1°C 67% 9.0 mph S14.5 kmh S 20.0 mph32.2 kmh 30.34 in1027.4 mb 0.00 in0.0 mm 0.00 in0.0 mm 0.00 in0.0 mm
10:36 AM 19.5°F-6.9°C 10.0°F-12.2°C 66% 9.0 mph S14.5 kmh S 20.0 mph32.2 kmh 30.35 in1027.8 mb 0.00 in0.0 mm 0.00 in0.0 mm 0.00 in0.0 mm
10:38 AM 19.5°F-6.9°C 10.0°F-12.2°C 66% 9.0 mph S14.5 kmh S 20.0 mph32.2 kmh 30.35 in1027.8 mb 0.00 in0.0 mm 0.00 in0.0 mm 0.00 in0.0 mm
10:40 AM 19.5°F-6.9°C 10.0°F-12.2°C 66% 9.0 mph SSE14.5 kmh SSE 20.0 mph32.2 kmh 30.34 in1027.4 mb 0.00 in0.0 mm 0.00 in0.0 mm 0.00 in0.0 mm
10:42 AM 19.7°F-6.8°C 10.5°F-11.9°C 67% 9.0 mph SSE14.5 kmh SSE 20.0 mph32.2 kmh 30.34 in1027.4 mb 0.00 in0.0 mm 0.00 in0.0 mm 0.00 in0.0 mm
10:44 AM 19.8°F-6.8°C 10.6°F-11.9°C 67% 9.0 mph S14.5 kmh S 20.0 mph32.2 kmh 30.34 in1027.4 mb 0.00 in0.0 mm 0.00 in0.0 mm 0.00 in0.0 mm
10:46 AM 20.0°F-6.7°C 10.8°F-11.8°C 67% 8.0 mph S12.9 kmh S 20.0 mph32.2 kmh 30.34 in1027.4 mb 0.00 in0.0 mm 0.00 in0.0 mm 0.00 in0.0 mm
10:48 AM 20.1°F-6.6°C 10.6°F-11.9°C 66% 8.0 mph S12.9 kmh S 18.0 mph29.0 kmh 30.34 in1027.4 mb 0.00 in0.0 mm 0.00 in0.0 mm 0.00 in0.0 mm
10:50 AM 20.1°F-6.6°C 10.2°F-12.1°C 65% 8.0 mph S12.9 kmh S 18.0 mph29.0 kmh 30.34 in1027.4 mb 0.00 in0.0 mm 0.00 in0.0 mm 0.00 in0.0 mm
10:52 AM 20.0°F-6.7°C 10.1°F-12.2°C 65% 8.0 mph SSE12.9 kmh SSE 18.0 mph29.0 kmh 30.33 in1027.1 mb 0.00 in0.0 mm 0.00 in0.0 mm 0.00 in0.0 mm
10:54 AM 20.0°F-6.7°C 10.1°F-12.2°C 65% 8.0 mph SSE12.9 kmh SSE 18.0 mph29.0 kmh 30.33 in1027.1 mb 0.00 in0.0 mm 0.00 in0.0 mm 0.00 in0.0 mm
10:56 AM 19.9°F-6.7°C 10.0°F-12.2°C 65% 8.0 mph SSE12.9 kmh SSE 18.0 mph29.0 kmh 30.33 in1027.1 mb 0.00 in0.0 mm 0.00 in0.0 mm 0.00 in0.0 mm
10:58 AM 20.0°F-6.7°C 10.1°F-12.2°C 65% 8.0 mph SSE12.9 kmh SSE 14.0 mph22.5 kmh 30.32 in1026.8 mb 0.00 in0.0 mm 0.00 in0.0 mm 0.00 in0.0 mm
11:00 AM 19.9°F-6.7°C 10.4°F-12.0°C 66% 8.0 mph SSE12.9 kmh SSE 14.0 mph22.5 kmh 30.32 in1026.8 mb 0.00 in0.0 mm 0.00 in0.0 mm 0.00 in0.0 mm
11:02 AM 20.0°F-6.7°C 10.8°F-11.8°C 67% 8.0 mph SSE12.9 kmh SSE 14.0 mph22.5 kmh 30.32 in1026.8 mb 0.00 in0.0 mm 0.00 in0.0 mm 0.00 in0.0 mm
11:04 AM 20.0°F-6.7°C 10.8°F-11.8°C 67% 7.0 mph SSE11.3 kmh SSE 14.0 mph22.5 kmh 30.32 in1026.8 mb 0.00 in0.0 mm 0.00 in0.0 mm 0.00 in0.0 mm
11:06 AM 20.0°F-6.7°C 10.5°F-11.9°C 66% 7.0 mph SSE11.3 kmh SSE 14.0 mph22.5 kmh 30.31 in1026.4 mb 0.00 in0.0 mm 0.00 in0.0 mm 0.00 in0.0 mm
11:08 AM 19.9°F-6.7°C 10.4°F-12.0°C 66% 7.0 mph SSE11.3 kmh SSE 18.0 mph29.0 kmh 30.31 in1026.4 mb 0.00 in0.0 mm 0.00 in0.0 mm 0.00 in0.0 mm
11:10 AM 20.0°F-6.7°C 10.8°F-11.8°C 67% 7.0 mph SSE11.3 kmh SSE 18.0 mph29.0 kmh 30.31 in1026.4 mb 0.00 in0.0 mm 0.00 in0.0 mm 0.00 in0.0 mm
11:12 AM 20.0°F-6.7°C 10.5°F-11.9°C 66% 7.0 mph SSE11.3 kmh SSE 19.0 mph30.6 kmh 30.30 in1026.1 mb 0.00 in0.0 mm 0.00 in0.0 mm 0.00 in0.0 mm
11:14 AM 20.0°F-6.7°C 10.8°F-11.8°C 67% 8.0 mph SSE12.9 kmh SSE 19.0 mph30.6 kmh 30.30 in1026.1 mb 0.00 in0.0 mm 0.00 in0.0 mm 0.00 in0.0 mm
11:16 AM 20.1°F-6.6°C 10.9°F-11.7°C 67% 7.0 mph SSE11.3 kmh SSE 19.0 mph30.6 kmh 30.30 in1026.1 mb 0.00 in0.0 mm 0.00 in0.0 mm 0.00 in0.0 mm
11:18 AM 20.2°F-6.6°C 11.0°F-11.7°C 67% 8.0 mph SSE12.9 kmh SSE 19.0 mph30.6 kmh 30.30 in1026.1 mb 0.00 in0.0 mm 0.00 in0.0 mm 0.00 in0.0 mm
11:20 AM 20.3°F-6.5°C 11.1°F-11.6°C 67% 8.0 mph SSE12.9 kmh SSE 19.0 mph30.6 kmh 30.30 in1026.1 mb 0.00 in0.0 mm 0.00 in0.0 mm 0.00 in0.0 mm
11:22 AM 20.3°F-6.5°C 11.1°F-11.6°C 67% 8.0 mph SSE12.9 kmh SSE 19.0 mph30.6 kmh 30.30 in1026.1 mb 0.00 in0.0 mm 0.00 in0.0 mm 0.00 in0.0 mm
11:24 AM 20.4°F-6.4°C 11.5°F-11.4°C 68% 8.0 mph SSE12.9 kmh SSE 19.0 mph30.6 kmh 30.29 in1025.7 mb 0.00 in0.0 mm 0.00 in0.0 mm 0.00 in0.0 mm
11:26 AM 20.5°F-6.4°C 11.9°F-11.2°C 69% 8.0 mph SSE12.9 kmh SSE 16.0 mph25.7 kmh 30.29 in1025.7 mb 0.00 in0.0 mm 0.00 in0.0 mm 0.00 in0.0 mm
11:28 AM 20.6°F-6.3°C 11.7°F-11.3°C 68% 7.0 mph SSE11.3 kmh SSE 15.0 mph24.1 kmh 30.29 in1025.7 mb 0.00 in0.0 mm 0.00 in0.0 mm 0.00 in0.0 mm
11:30 AM 20.7°F-6.3°C 11.8°F-11.2°C 68% 6.0 mph SSE9.7 kmh SSE 12.0 mph19.3 kmh 30.29 in1025.7 mb 0.00 in0.0 mm 0.00 in0.0 mm 0.00 in0.0 mm
11:32 AM 20.7°F-6.3°C 11.8°F-11.2°C 68% 7.0 mph SSE11.3 kmh SSE 13.0 mph20.9 kmh 30.29 in1025.7 mb 0.00 in0.0 mm 0.00 in0.0 mm 0.00 in0.0 mm
11:34 AM 20.7°F-6.3°C 11.8°F-11.2°C 68% 6.0 mph SSE9.7 kmh SSE 13.0 mph20.9 kmh 30.28 in1025.4 mb 0.00 in0.0 mm 0.00 in0.0 mm 0.00 in0.0 mm
11:36 AM 20.9°F-6.2°C 12.3°F-10.9°C 69% 6.0 mph SSE9.7 kmh SSE 13.0 mph20.9 kmh 30.28 in1025.4 mb 0.00 in0.0 mm 0.00 in0.0 mm 0.00 in0.0 mm
11:38 AM 21.1°F-6.1°C 12.5°F-10.8°C 69% 6.0 mph SSE9.7 kmh SSE 13.0 mph20.9 kmh 30.28 in1025.4 mb 0.00 in0.0 mm 0.00 in0.0 mm 0.00 in0.0 mm
11:40 AM 21.2°F-6.0°C 12.6°F-10.8°C 69% 6.0 mph SSE9.7 kmh SSE 13.0 mph20.9 kmh 30.28 in1025.4 mb 0.00 in0.0 mm 0.00 in0.0 mm 0.00 in0.0 mm
11:42 AM 21.3°F-5.9°C 12.7°F-10.7°C 69% 6.0 mph SSE9.7 kmh SSE 13.0 mph20.9 kmh 30.28 in1025.4 mb 0.00 in0.0 mm 0.00 in0.0 mm 0.00 in0.0 mm
11:44 AM 21.3°F-5.9°C 12.4°F-10.9°C 68% 7.0 mph SSE11.3 kmh SSE 16.0 mph25.7 kmh 30.27 in1025.1 mb 0.00 in0.0 mm 0.00 in0.0 mm 0.00 in0.0 mm
11:46 AM 21.4°F-5.9°C 12.5°F-10.8°C 68% 7.0 mph SSE11.3 kmh SSE 16.0 mph25.7 kmh 30.27 in1025.1 mb 0.00 in0.0 mm 0.00 in0.0 mm 0.00 in0.0 mm
11:48 AM 21.5°F-5.8°C 12.6°F-10.8°C 68% 7.0 mph SSE11.3 kmh SSE 16.0 mph25.7 kmh 30.27 in1025.1 mb 0.00 in0.0 mm 0.00 in0.0 mm 0.00 in0.0 mm
11:50 AM 21.6°F-5.8°C 12.7°F-10.7°C 68% 7.0 mph SSE11.3 kmh SSE 16.0 mph25.7 kmh 30.27 in1025.1 mb 0.00 in0.0 mm 0.00 in0.0 mm 0.00 in0.0 mm
11:52 AM 21.8°F-5.7°C 12.9°F-10.6°C 68% 7.0 mph SSE11.3 kmh SSE 16.0 mph25.7 kmh 30.27 in1025.1 mb 0.00 in0.0 mm 0.00 in0.0 mm 0.00 in0.0 mm
11:54 AM 21.9°F-5.6°C 12.6°F-10.8°C 67% 7.0 mph SSE11.3 kmh SSE 16.0 mph25.7 kmh 30.26 in1024.7 mb 0.00 in0.0 mm 0.00 in0.0 mm 0.00 in0.0 mm
11:56 AM 22.0°F-5.6°C 12.4°F-10.9°C 66% 7.0 mph SSE11.3 kmh SSE 16.0 mph25.7 kmh 30.26 in1024.7 mb 0.00 in0.0 mm 0.00 in0.0 mm 0.00 in0.0 mm
11:58 AM 22.2°F-5.4°C 12.6°F-10.8°C 66% 7.0 mph SSE11.3 kmh SSE 16.0 mph25.7 kmh 30.26 in1024.7 mb 0.00 in0.0 mm 0.00 in0.0 mm 0.00 in0.0 mm
12:00 PM 22.4°F-5.3°C 13.1°F-10.5°C 67% 7.0 mph SSE11.3 kmh SSE 16.0 mph25.7 kmh 30.26 in1024.7 mb 0.00 in0.0 mm 0.00 in0.0 mm 0.00 in0.0 mm
12:02 PM 22.6°F-5.2°C 12.9°F-10.6°C 66% 7.0 mph SSE11.3 kmh SSE 16.0 mph25.7 kmh 30.25 in1024.4 mb 0.00 in0.0 mm 0.00 in0.0 mm 0.00 in0.0 mm
12:04 PM 22.7°F-5.2°C 12.7°F-10.7°C 65% 7.0 mph S11.3 kmh S 17.0 mph27.4 kmh 30.25 in1024.4 mb 0.00 in0.0 mm 0.00 in0.0 mm 0.00 in0.0 mm
12:06 PM 22.7°F-5.2°C 12.3°F-10.9°C 64% 8.0 mph S12.9 kmh S 17.0 mph27.4 kmh 30.25 in1024.4 mb 0.00 in0.0 mm 0.00 in0.0 mm 0.00 in0.0 mm
12:08 PM 22.8°F-5.1°C 12.8°F-10.7°C 65% 8.0 mph SSE12.9 kmh SSE 17.0 mph27.4 kmh 30.25 in1024.4 mb 0.00 in0.0 mm 0.00 in0.0 mm 0.00 in0.0 mm
12:10 PM 23.0°F-5.0°C 13.3°F-10.4°C 66% 7.0 mph SSE11.3 kmh SSE 17.0 mph27.4 kmh 30.26 in1024.7 mb 0.00 in0.0 mm 0.00 in0.0 mm 0.00 in0.0 mm
12:12 PM 23.2°F-4.9°C 13.2°F-10.4°C 65% 7.0 mph SSE11.3 kmh SSE 17.0 mph27.4 kmh 30.25 in1024.4 mb 0.00 in0.0 mm 0.00 in0.0 mm 0.00 in0.0 mm
12:14 PM 23.2°F-4.9°C 12.8°F-10.7°C 64% 8.0 mph SSE12.9 kmh SSE 18.0 mph29.0 kmh 30.26 in1024.7 mb 0.00 in0.0 mm 0.00 in0.0 mm 0.00 in0.0 mm
12:16 PM 23.3°F-4.8°C 12.6°F-10.8°C 63% 8.0 mph SSE12.9 kmh SSE 18.0 mph29.0 kmh 30.26 in1024.7 mb 0.00 in0.0 mm 0.00 in0.0 mm 0.00 in0.0 mm
12:18 PM 23.4°F-4.8°C 12.6°F-10.8°C 63% 8.0 mph S12.9 kmh S 18.0 mph29.0 kmh 30.26 in1024.7 mb 0.00 in0.0 mm 0.00 in0.0 mm 0.00 in0.0 mm
12:20 PM 23.5°F-4.7°C 12.7°F-10.7°C 63% 9.0 mph S14.5 kmh S 18.0 mph29.0 kmh 30.26 in1024.7 mb 0.00 in0.0 mm 0.00 in0.0 mm 0.00 in0.0 mm
12:22 PM 23.6°F-4.7°C 12.8°F-10.7°C 63% 9.0 mph S14.5 kmh S 18.0 mph29.0 kmh 30.26 in1024.7 mb 0.00 in0.0 mm 0.00 in0.0 mm 0.00 in0.0 mm
12:24 PM 23.8°F-4.6°C 13.4°F-10.3°C 64% 8.0 mph SSE12.9 kmh SSE 17.0 mph27.4 kmh 30.26 in1024.7 mb 0.00 in0.0 mm 0.00 in0.0 mm 0.00 in0.0 mm
12:26 PM 23.9°F-4.5°C 13.1°F-10.5°C 63% 9.0 mph S14.5 kmh S 20.0 mph32.2 kmh 30.26 in1024.7 mb 0.00 in0.0 mm 0.00 in0.0 mm 0.00 in0.0 mm
12:28 PM 23.9°F-4.5°C 12.8°F-10.7°C 62% 10.0 mph SSE16.1 kmh SSE 20.0 mph32.2 kmh 30.26 in1024.7 mb 0.00 in0.0 mm 0.00 in0.0 mm 0.00 in0.0 mm
12:30 PM 23.9°F-4.5°C 12.4°F-10.9°C 61% 10.0 mph SSE16.1 kmh SSE 20.0 mph32.2 kmh 30.26 in1024.7 mb 0.00 in0.0 mm 0.00 in0.0 mm 0.00 in0.0 mm
12:32 PM 23.9°F-4.5°C 12.8°F-10.7°C 62% 10.0 mph SSE16.1 kmh SSE 20.0 mph32.2 kmh 30.26 in1024.7 mb 0.00 in0.0 mm 0.00 in0.0 mm 0.00 in0.0 mm
12:34 PM 23.9°F-4.5°C 13.1°F-10.5°C 63% 10.0 mph S16.1 kmh S 20.0 mph32.2 kmh 30.26 in1024.7 mb 0.00 in0.0 mm 0.00 in0.0 mm 0.00 in0.0 mm
12:36 PM 23.9°F-4.5°C 12.8°F-10.7°C 62% 10.0 mph S16.1 kmh S 19.0 mph30.6 kmh 30.26 in1024.7 mb 0.00 in0.0 mm 0.00 in0.0 mm 0.00 in0.0 mm
12:38 PM 23.8°F-4.6°C 12.3°F-10.9°C 61% 10.0 mph S16.1 kmh S 19.0 mph30.6 kmh 30.25 in1024.4 mb 0.00 in0.0 mm 0.00 in0.0 mm 0.00 in0.0 mm
12:40 PM 23.8°F-4.6°C 12.7°F-10.7°C 62% 10.0 mph S16.1 kmh S 19.0 mph30.6 kmh 30.25 in1024.4 mb 0.00 in0.0 mm 0.00 in0.0 mm 0.00 in0.0 mm
12:42 PM 23.9°F-4.5°C 12.8°F-10.7°C 62% 10.0 mph S16.1 kmh S 19.0 mph30.6 kmh 30.25 in1024.4 mb 0.00 in0.0 mm 0.00 in0.0 mm 0.00 in0.0 mm
12:44 PM 23.9°F-4.5°C 12.8°F-10.7°C 62% 10.0 mph S16.1 kmh S 20.0 mph32.2 kmh 30.25 in1024.4 mb 0.00 in0.0 mm 0.00 in0.0 mm 0.00 in0.0 mm
12:46 PM 23.9°F-4.5°C 12.8°F-10.7°C 62% 10.0 mph SSE16.1 kmh SSE 20.0 mph32.2 kmh 30.25 in1024.4 mb 0.00 in0.0 mm 0.00 in0.0 mm 0.00 in0.0 mm
12:48 PM 24.1°F-4.4°C 12.9°F-10.6°C 62% 10.0 mph S16.1 kmh S 20.0 mph32.2 kmh 30.25 in1024.4 mb 0.00 in0.0 mm 0.00 in0.0 mm 0.00 in0.0 mm
12:50 PM 24.3°F-4.3°C 13.5°F-10.3°C 63% 9.0 mph S14.5 kmh S 20.0 mph32.2 kmh 30.25 in1024.4 mb 0.00 in0.0 mm 0.00 in0.0 mm 0.00 in0.0 mm
12:52 PM 24.6°F-4.1°C 13.8°F-10.1°C 63% 10.0 mph S16.1 kmh S 20.0 mph32.2 kmh 30.25 in1024.4 mb 0.00 in0.0 mm 0.00 in0.0 mm 0.00 in0.0 mm
12:54 PM 24.7°F-4.1°C 13.1°F-10.5°C 61% 10.0 mph S16.1 kmh S 18.0 mph29.0 kmh 30.25 in1024.4 mb 0.00 in0.0 mm 0.00 in0.0 mm 0.00 in0.0 mm
12:56 PM 24.7°F-4.1°C 13.1°F-10.5°C 61% 10.0 mph S16.1 kmh S 18.0 mph29.0 kmh 30.25 in1024.4 mb 0.00 in0.0 mm 0.00 in0.0 mm 0.00 in0.0 mm
12:58 PM 24.8°F-4.0°C 13.2°F-10.4°C 61% 10.0 mph S16.1 kmh S 18.0 mph29.0 kmh 30.25 in1024.4 mb 0.00 in0.0 mm 0.00 in0.0 mm 0.00 in0.0 mm
01:00 PM 24.9°F-3.9°C 13.7°F-10.2°C 62% 9.0 mph S14.5 kmh S 18.0 mph29.0 kmh 30.24 in1024.0 mb 0.00 in0.0 mm 0.00 in0.0 mm 0.00 in0.0 mm
01:02 PM 25.0°F-3.9°C 13.4°F-10.3°C 61% 9.0 mph S14.5 kmh S 18.0 mph29.0 kmh 30.24 in1024.0 mb 0.00 in0.0 mm 0.00 in0.0 mm 0.00 in0.0 mm
01:04 PM 25.0°F-3.9°C 13.1°F-10.5°C 60% 9.0 mph S14.5 kmh S 18.0 mph29.0 kmh 30.24 in1024.0 mb 0.00 in0.0 mm 0.00 in0.0 mm 0.00 in0.0 mm
01:06 PM 24.9°F-3.9°C 12.6°F-10.8°C 59% 9.0 mph S14.5 kmh S 18.0 mph29.0 kmh 30.24 in1024.0 mb 0.00 in0.0 mm 0.00 in0.0 mm 0.00 in0.0 mm
01:08 PM 24.8°F-4.0°C 12.5°F-10.8°C 59% 10.0 mph S16.1 kmh S 18.0 mph29.0 kmh 30.24 in1024.0 mb 0.00 in0.0 mm 0.00 in0.0 mm 0.00 in0.0 mm
01:10 PM 24.7°F-4.1°C 12.4°F-10.9°C 59% 11.0 mph S17.7 kmh S 18.0 mph29.0 kmh 30.23 in1023.7 mb 0.00 in0.0 mm 0.00 in0.0 mm 0.00 in0.0 mm
01:12 PM 24.8°F-4.0°C 13.2°F-10.4°C 61% 11.0 mph S17.7 kmh S 18.0 mph29.0 kmh 30.23 in1023.7 mb 0.00 in0.0 mm 0.00 in0.0 mm 0.00 in0.0 mm
01:14 PM 24.9°F-3.9°C 13.3°F-10.4°C 61% 11.0 mph S17.7 kmh S 20.0 mph32.2 kmh 30.23 in1023.7 mb 0.00 in0.0 mm 0.00 in0.0 mm 0.00 in0.0 mm
01:16 PM 24.9°F-3.9°C 13.7°F-10.2°C 62% 10.0 mph S16.1 kmh S 20.0 mph32.2 kmh 30.23 in1023.7 mb 0.00 in0.0 mm 0.00 in0.0 mm 0.00 in0.0 mm
01:18 PM 25.1°F-3.8°C 13.9°F-10.1°C 62% 9.0 mph S14.5 kmh S 20.0 mph32.2 kmh 30.23 in1023.7 mb 0.00 in0.0 mm 0.00 in0.0 mm 0.00 in0.0 mm
01:20 PM 25.1°F-3.8°C 14.3°F-9.8°C 63% 8.0 mph S12.9 kmh S 20.0 mph32.2 kmh 30.23 in1023.7 mb 0.00 in0.0 mm 0.00 in0.0 mm 0.00 in0.0 mm
01:22 PM 25.2°F-3.8°C 14.4°F-9.8°C 63% 7.0 mph S11.3 kmh S 20.0 mph32.2 kmh 30.23 in1023.7 mb 0.00 in0.0 mm 0.00 in0.0 mm 0.00 in0.0 mm
01:24 PM 25.1°F-3.8°C 13.9°F-10.1°C 62% 7.0 mph SSE11.3 kmh SSE 16.0 mph25.7 kmh 30.22 in1023.4 mb 0.00 in0.0 mm 0.00 in0.0 mm 0.00 in0.0 mm
01:26 PM 25.1°F-3.8°C 13.9°F-10.1°C 62% 7.0 mph SSE11.3 kmh SSE 16.0 mph25.7 kmh 30.22 in1023.4 mb 0.00 in0.0 mm 0.00 in0.0 mm 0.00 in0.0 mm
01:28 PM 25.3°F-3.7°C 14.5°F-9.7°C 63% 7.0 mph SSE11.3 kmh SSE 16.0 mph25.7 kmh 30.22 in1023.4 mb 0.00 in0.0 mm 0.00 in0.0 mm 0.00 in0.0 mm
01:30 PM 25.4°F-3.7°C 14.5°F-9.7°C 63% 7.0 mph SSE11.3 kmh SSE 16.0 mph25.7 kmh 30.22 in1023.4 mb 0.00 in0.0 mm 0.00 in0.0 mm 0.00 in0.0 mm
01:32 PM 25.5°F-3.6°C 14.6°F-9.7°C 63% 8.0 mph SSE12.9 kmh SSE 16.0 mph25.7 kmh 30.22 in1023.4 mb 0.00 in0.0 mm 0.00 in0.0 mm 0.00 in0.0 mm
01:34 PM 25.5°F-3.6°C 14.6°F-9.7°C 63% 8.0 mph SSE12.9 kmh SSE 17.0 mph27.4 kmh 30.21 in1023.0 mb 0.00 in0.0 mm 0.00 in0.0 mm 0.00 in0.0 mm
01:36 PM 25.4°F-3.7°C 14.2°F-9.9°C 62% 7.0 mph SSE11.3 kmh SSE 17.0 mph27.4 kmh 30.21 in1023.0 mb 0.00 in0.0 mm 0.00 in0.0 mm 0.00 in0.0 mm
01:38 PM 25.3°F-3.7°C 14.5°F-9.7°C 63% 8.0 mph SSE12.9 kmh SSE 17.0 mph27.4 kmh 30.21 in1023.0 mb 0.00 in0.0 mm 0.00 in0.0 mm 0.00 in0.0 mm
01:40 PM 25.2°F-3.8°C 14.4°F-9.8°C 63% 8.0 mph SSE12.9 kmh SSE 17.0 mph27.4 kmh 30.21 in1023.0 mb 0.00 in0.0 mm 0.00 in0.0 mm 0.00 in0.0 mm
01:42 PM 25.1°F-3.8°C 14.3°F-9.8°C 63% 8.0 mph SSE12.9 kmh SSE 19.0 mph30.6 kmh 30.21 in1023.0 mb 0.00 in0.0 mm 0.00 in0.0 mm 0.00 in0.0 mm
01:44 PM 25.0°F-3.9°C 13.8°F-10.1°C 62% 8.0 mph SSE12.9 kmh SSE 19.0 mph30.6 kmh 30.21 in1023.0 mb 0.00 in0.0 mm 0.00 in0.0 mm 0.00 in0.0 mm
01:46 PM 24.9°F-3.9°C 14.1°F-9.9°C 63% 9.0 mph SSE14.5 kmh SSE 19.0 mph30.6 kmh 30.21 in1023.0 mb 0.00 in0.0 mm 0.00 in0.0 mm 0.00 in0.0 mm
01:48 PM 24.9°F-3.9°C 14.1°F-9.9°C 63% 9.0 mph SSE14.5 kmh SSE 19.0 mph30.6 kmh 30.20 in1022.7 mb 0.00 in0.0 mm 0.00 in0.0 mm 0.00 in0.0 mm
01:50 PM 24.9°F-3.9°C 14.4°F-9.8°C 64% 9.0 mph SSE14.5 kmh SSE 19.0 mph30.6 kmh 30.20 in1022.7 mb 0.00 in0.0 mm 0.00 in0.0 mm 0.00 in0.0 mm
01:52 PM 24.9°F-3.9°C 14.8°F-9.6°C 65% 9.0 mph SSE14.5 kmh SSE 19.0 mph30.6 kmh 30.21 in1023.0 mb 0.00 in0.0 mm 0.00 in0.0 mm 0.00 in0.0 mm
01:54 PM 25.0°F-3.9°C 14.9°F-9.5°C 65% 8.0 mph SSE12.9 kmh SSE 19.0 mph30.6 kmh 30.21 in1023.0 mb 0.00 in0.0 mm 0.00 in0.0 mm 0.00 in0.0 mm
01:56 PM 25.0°F-3.9°C 14.9°F-9.5°C 65% 7.0 mph SSE11.3 kmh SSE 19.0 mph30.6 kmh 30.20 in1022.7 mb 0.00 in0.0 mm 0.00 in0.0 mm 0.00 in0.0 mm
01:58 PM 25.0°F-3.9°C 14.9°F-9.5°C 65% 7.0 mph SSE11.3 kmh SSE 16.0 mph25.7 kmh 30.20 in1022.7 mb 0.00 in0.0 mm 0.00 in0.0 mm 0.00 in0.0 mm
02:00 PM 25.0°F-3.9°C 14.9°F-9.5°C 65% 7.0 mph SSE11.3 kmh SSE 16.0 mph25.7 kmh 30.20 in1022.7 mb 0.00 in0.0 mm 0.00 in0.0 mm 0.00 in0.0 mm
02:02 PM 25.0°F-3.9°C 14.9°F-9.5°C 65% 7.0 mph SSE11.3 kmh SSE 16.0 mph25.7 kmh 30.20 in1022.7 mb 0.00 in0.0 mm 0.00 in0.0 mm 0.00 in0.0 mm
02:04 PM 25.0°F-3.9°C 14.9°F-9.5°C 65% 8.0 mph SSE12.9 kmh SSE 16.0 mph25.7 kmh 30.20 in1022.7 mb 0.00 in0.0 mm 0.00 in0.0 mm 0.00 in0.0 mm
02:06 PM 25.0°F-3.9°C 14.9°F-9.5°C 65% 8.0 mph SSE12.9 kmh SSE 18.0 mph29.0 kmh 30.19 in1022.4 mb 0.00 in0.0 mm 0.00 in0.0 mm 0.00 in0.0 mm
02:08 PM 25.0°F-3.9°C 15.2°F-9.3°C 66% 8.0 mph SSE12.9 kmh SSE 18.0 mph29.0 kmh 30.19 in1022.4 mb 0.00 in0.0 mm 0.00 in0.0 mm 0.00 in0.0 mm
02:10 PM 25.0°F-3.9°C 15.2°F-9.3°C 66% 8.0 mph SSE12.9 kmh SSE 18.0 mph29.0 kmh 30.19 in1022.4 mb 0.00 in0.0 mm 0.00 in0.0 mm 0.00 in0.0 mm
02:12 PM 25.1°F-3.8°C 15.7°F-9.1°C 67% 7.0 mph SSE11.3 kmh SSE 18.0 mph29.0 kmh 30.19 in1022.4 mb 0.00 in0.0 mm 0.00 in0.0 mm 0.00 in0.0 mm
02:14 PM 25.1°F-3.8°C 15.3°F-9.3°C 66% 7.0 mph SSE11.3 kmh SSE 18.0 mph29.0 kmh 30.19 in1022.4 mb 0.00 in0.0 mm 0.00 in0.0 mm 0.00 in0.0 mm
02:16 PM 25.1°F-3.8°C 15.3°F-9.3°C 66% 7.0 mph SSE11.3 kmh SSE 15.0 mph24.1 kmh 30.18 in1022.0 mb 0.00 in0.0 mm 0.00 in0.0 mm 0.00 in0.0 mm
02:18 PM 25.2°F-3.8°C 15.4°F-9.2°C 66% 7.0 mph SSE11.3 kmh SSE 17.0 mph27.4 kmh 30.18 in1022.0 mb 0.00 in0.0 mm 0.00 in0.0 mm 0.00 in0.0 mm
02:20 PM 25.2°F-3.8°C 15.4°F-9.2°C 66% 7.0 mph SSE11.3 kmh SSE 17.0 mph27.4 kmh 30.18 in1022.0 mb 0.00 in0.0 mm 0.00 in0.0 mm 0.00 in0.0 mm
02:22 PM 25.3°F-3.7°C 15.5°F-9.2°C 66% 8.0 mph SSE12.9 kmh SSE 19.0 mph30.6 kmh 30.18 in1022.0 mb 0.00 in0.0 mm 0.00 in0.0 mm 0.00 in0.0 mm
02:24 PM 25.3°F-3.7°C 15.5°F-9.2°C 66% 8.0 mph SSE12.9 kmh SSE 19.0 mph30.6 kmh 30.17 in1021.7 mb 0.00 in0.0 mm 0.00 in0.0 mm 0.00 in0.0 mm
02:26 PM 25.3°F-3.7°C 15.5°F-9.2°C 66% 8.0 mph SSE12.9 kmh SSE 19.0 mph30.6 kmh 30.18 in1022.0 mb 0.00 in0.0 mm 0.00 in0.0 mm 0.00 in0.0 mm
02:28 PM 25.3°F-3.7°C 15.2°F-9.3°C 65% 9.0 mph SSE14.5 kmh SSE 19.0 mph30.6 kmh 30.17 in1021.7 mb 0.00 in0.0 mm 0.00 in0.0 mm 0.00 in0.0 mm
02:30 PM 25.3°F-3.7°C 15.2°F-9.3°C 65% 9.0 mph SSE14.5 kmh SSE 19.0 mph30.6 kmh 30.17 in1021.7 mb 0.00 in0.0 mm 0.00 in0.0 mm 0.00 in0.0 mm
02:32 PM 25.3°F-3.7°C 15.5°F-9.2°C 66% 8.0 mph SSE12.9 kmh SSE 19.0 mph30.6 kmh 30.17 in1021.7 mb 0.00 in0.0 mm 0.00 in0.0 mm 0.00 in0.0 mm
02:34 PM 25.4°F-3.7°C 15.6°F-9.1°C 66% 8.0 mph SSE12.9 kmh SSE 19.0 mph30.6 kmh 30.17 in1021.7 mb 0.00 in0.0 mm 0.00 in0.0 mm 0.00 in0.0 mm
02:36 PM 25.4°F-3.7°C 15.6°F-9.1°C 66% 7.0 mph SSE11.3 kmh SSE 17.0 mph27.4 kmh 30.17 in1021.7 mb 0.00 in0.0 mm 0.00 in0.0 mm 0.00 in0.0 mm
02:38 PM 25.4°F-3.7°C 15.6°F-9.1°C 66% 7.0 mph S11.3 kmh S 15.0 mph24.1 kmh 30.18 in1022.0 mb 0.00 in0.0 mm 0.00 in0.0 mm 0.00 in0.0 mm
02:40 PM 25.4°F-3.7°C 15.6°F-9.1°C 66% 6.0 mph S9.7 kmh S 16.0 mph25.7 kmh 30.18 in1022.0 mb 0.00 in0.0 mm 0.00 in0.0 mm 0.00 in0.0 mm
02:42 PM 25.4°F-3.7°C 15.3°F-9.3°C 65% 7.0 mph S11.3 kmh S 16.0 mph25.7 kmh 30.18 in1022.0 mb 0.00 in0.0 mm 0.00 in0.0 mm 0.00 in0.0 mm
02:44 PM 25.4°F-3.7°C 15.6°F-9.1°C 66% 7.0 mph S11.3 kmh S 18.0 mph29.0 kmh 30.17 in1021.7 mb 0.00 in0.0 mm 0.00 in0.0 mm 0.00 in0.0 mm
02:46 PM 25.5°F-3.6°C 15.7°F-9.1°C 66% 7.0 mph S11.3 kmh S 18.0 mph29.0 kmh 30.17 in1021.7 mb 0.00 in0.0 mm 0.00 in0.0 mm 0.00 in0.0 mm
02:48 PM 25.5°F-3.6°C 15.7°F-9.1°C 66% 8.0 mph S12.9 kmh S 18.0 mph29.0 kmh 30.17 in1021.7 mb 0.00 in0.0 mm 0.00 in0.0 mm 0.00 in0.0 mm
02:50 PM 25.5°F-3.6°C 15.7°F-9.1°C 66% 7.0 mph S11.3 kmh S 18.0 mph29.0 kmh 30.17 in1021.7 mb 0.00 in0.0 mm 0.00 in0.0 mm 0.00 in0.0 mm
02:52 PM 25.5°F-3.6°C 16.1°F-8.8°C 67% 7.0 mph S11.3 kmh S 18.0 mph29.0 kmh 30.17 in1021.7 mb 0.00 in0.0 mm 0.00 in0.0 mm 0.00 in0.0 mm
02:54 PM 25.5°F-3.6°C 16.1°F-8.8°C 67% 7.0 mph SSE11.3 kmh SSE 16.0 mph25.7 kmh 30.18 in1022.0 mb 0.00 in0.0 mm 0.00 in0.0 mm 0.00 in0.0 mm
02:56 PM 25.5°F-3.6°C 15.7°F-9.1°C 66% 6.0 mph SSE9.7 kmh SSE 24.0 mph38.6 kmh 30.18 in1022.0 mb 0.00 in0.0 mm 0.00 in0.0 mm 0.00 in0.0 mm
02:58 PM 25.6°F-3.6°C 15.8°F-9.0°C 66% 7.0 mph SSE11.3 kmh SSE 24.0 mph38.6 kmh 30.18 in1022.0 mb 0.00 in0.0 mm 0.00 in0.0 mm 0.00 in0.0 mm
03:00 PM 25.6°F-3.6°C 15.8°F-9.0°C 66% 7.0 mph SSE11.3 kmh SSE 24.0 mph38.6 kmh 30.17 in1021.7 mb 0.00 in0.0 mm 0.00 in0.0 mm 0.00 in0.0 mm
03:02 PM 25.6°F-3.6°C 15.8°F-9.0°C 66% 7.0 mph SSE11.3 kmh SSE 24.0 mph38.6 kmh 30.17 in1021.7 mb 0.00 in0.0 mm 0.00 in0.0 mm 0.00 in0.0 mm
03:04 PM 25.6°F-3.6°C 15.8°F-9.0°C 66% 8.0 mph SSE12.9 kmh SSE 24.0 mph38.6 kmh 30.17 in1021.7 mb 0.00 in0.0 mm 0.00 in0.0 mm 0.00 in0.0 mm
03:06 PM 25.6°F-3.6°C 16.2°F-8.8°C 67% 8.0 mph SSE12.9 kmh SSE 18.0 mph29.0 kmh 30.17 in1021.7 mb 0.00 in0.0 mm 0.00 in0.0 mm 0.00 in0.0 mm
03:08 PM 25.6°F-3.6°C 16.2°F-8.8°C 67% 7.0 mph SSE11.3 kmh SSE 18.0 mph29.0 kmh 30.17 in1021.7 mb 0.00 in0.0 mm 0.00 in0.0 mm 0.00 in0.0 mm
03:10 PM 25.6°F-3.6°C 16.2°F-8.8°C 67% 7.0 mph SSE11.3 kmh SSE 18.0 mph29.0 kmh 30.17 in1021.7 mb 0.00 in0.0 mm 0.00 in0.0 mm 0.00 in0.0 mm
03:12 PM 25.6°F-3.6°C 16.2°F-8.8°C 67% 7.0 mph SSE11.3 kmh SSE 23.0 mph37.0 kmh 30.17 in1021.7 mb 0.00 in0.0 mm 0.00 in0.0 mm 0.00 in0.0 mm
03:14 PM 25.6°F-3.6°C 16.2°F-8.8°C 67% 7.0 mph SSE11.3 kmh SSE 23.0 mph37.0 kmh 30.17 in1021.7 mb 0.00 in0.0 mm 0.00 in0.0 mm 0.00 in0.0 mm
03:16 PM 25.6°F-3.6°C 16.5°F-8.6°C 68% 7.0 mph SSE11.3 kmh SSE 23.0 mph37.0 kmh 30.17 in1021.7 mb 0.00 in0.0 mm 0.00 in0.0 mm 0.00 in0.0 mm
03:18 PM 25.7°F-3.5°C 16.6°F-8.6°C 68% 7.0 mph S11.3 kmh S 23.0 mph37.0 kmh 30.17 in1021.7 mb 0.00 in0.0 mm 0.00 in0.0 mm 0.00 in0.0 mm
03:20 PM 25.7°F-3.5°C 16.6°F-8.6°C 68% 8.0 mph S12.9 kmh S 23.0 mph37.0 kmh 30.17 in1021.7 mb 0.00 in0.0 mm 0.00 in0.0 mm 0.00 in0.0 mm
03:22 PM 25.8°F-3.4°C 16.7°F-8.5°C 68% 7.0 mph SSE11.3 kmh SSE 15.0 mph24.1 kmh 30.17 in1021.7 mb 0.00 in0.0 mm 0.00 in0.0 mm 0.00 in0.0 mm
03:24 PM 25.8°F-3.4°C 17.0°F-8.3°C 69% 6.0 mph SSE9.7 kmh SSE 15.0 mph24.1 kmh 30.17 in1021.7 mb 0.00 in0.0 mm 0.00 in0.0 mm 0.00 in0.0 mm
03:26 PM 25.8°F-3.4°C 16.7°F-8.5°C 68% 6.0 mph SSE9.7 kmh SSE 15.0 mph24.1 kmh 30.17 in1021.7 mb 0.00 in0.0 mm 0.00 in0.0 mm 0.00 in0.0 mm
03:28 PM 25.8°F-3.4°C 16.7°F-8.5°C 68% 6.0 mph SSE9.7 kmh SSE 13.0 mph20.9 kmh 30.17 in1021.7 mb 0.00 in0.0 mm 0.00 in0.0 mm 0.00 in0.0 mm
03:30 PM 25.9°F-3.4°C 17.1°F-8.3°C 69% 5.0 mph SSE8.0 kmh SSE 11.0 mph17.7 kmh 30.17 in1021.7 mb 0.00 in0.0 mm 0.00 in0.0 mm 0.00 in0.0 mm
03:32 PM 25.9°F-3.4°C 17.1°F-8.3°C 69% 5.0 mph SSE8.0 kmh SSE 14.0 mph22.5 kmh 30.17 in1021.7 mb 0.00 in0.0 mm 0.00 in0.0 mm 0.00 in0.0 mm
03:34 PM 25.9°F-3.4°C 16.8°F-8.4°C 68% 6.0 mph SSE9.7 kmh SSE 23.0 mph37.0 kmh 30.17 in1021.7 mb 0.00 in0.0 mm 0.00 in0.0 mm 0.00 in0.0 mm
03:36 PM 25.8°F-3.4°C 16.7°F-8.5°C 68% 6.0 mph SSE9.7 kmh SSE 23.0 mph37.0 kmh 30.17 in1021.7 mb 0.00 in0.0 mm 0.00 in0.0 mm 0.00 in0.0 mm
03:38 PM 25.8°F-3.4°C 16.7°F-8.5°C 68% 7.0 mph SSE11.3 kmh SSE 23.0 mph37.0 kmh 30.17 in1021.7 mb 0.00 in0.0 mm 0.00 in0.0 mm 0.00 in0.0 mm
03:40 PM 25.8°F-3.4°C 16.7°F-8.5°C 68% 7.0 mph SSE11.3 kmh SSE 23.0 mph37.0 kmh 30.16 in1021.3 mb 0.00 in0.0 mm 0.00 in0.0 mm 0.00 in0.0 mm
03:42 PM 25.8°F-3.4°C 17.0°F-8.3°C 69% 7.0 mph SSE11.3 kmh SSE 23.0 mph37.0 kmh 30.16 in1021.3 mb 0.00 in0.0 mm 0.00 in0.0 mm 0.00 in0.0 mm
03:44 PM 25.8°F-3.4°C 17.0°F-8.3°C 69% 7.0 mph SSE11.3 kmh SSE 14.0 mph22.5 kmh 30.16 in1021.3 mb 0.00 in0.0 mm 0.00 in0.0 mm 0.00 in0.0 mm
03:46 PM 25.8°F-3.4°C 17.0°F-8.3°C 69% 6.0 mph SSE9.7 kmh SSE 21.0 mph33.8 kmh 30.16 in1021.3 mb 0.00 in0.0 mm 0.00 in0.0 mm 0.00 in0.0 mm
03:48 PM 25.7°F-3.5°C 16.6°F-8.6°C 68% 6.0 mph SSE9.7 kmh SSE 21.0 mph33.8 kmh 30.16 in1021.3 mb 0.00 in0.0 mm 0.00 in0.0 mm 0.00 in0.0 mm
03:50 PM 25.7°F-3.5°C 16.9°F-8.4°C 69% 6.0 mph SSE9.7 kmh SSE 21.0 mph33.8 kmh 30.16 in1021.3 mb 0.00 in0.0 mm 0.00 in0.0 mm 0.00 in0.0 mm
03:52 PM 25.6°F-3.6°C 16.8°F-8.4°C 69% 7.0 mph SSE11.3 kmh SSE 21.0 mph33.8 kmh 30.16 in1021.3 mb 0.00 in0.0 mm 0.00 in0.0 mm 0.00 in0.0 mm
03:54 PM 25.6°F-3.6°C 16.8°F-8.4°C 69% 7.0 mph SSE11.3 kmh SSE 21.0 mph33.8 kmh 30.16 in1021.3 mb 0.00 in0.0 mm 0.00 in0.0 mm 0.00 in0.0 mm
03:56 PM 25.6°F-3.6°C 16.8°F-8.4°C 69% 8.0 mph SSE12.9 kmh SSE 21.0 mph33.8 kmh 30.16 in1021.3 mb 0.00 in0.0 mm 0.00 in0.0 mm 0.00 in0.0 mm
03:58 PM 25.6°F-3.6°C 17.2°F-8.2°C 70% 7.0 mph SSE11.3 kmh SSE 21.0 mph33.8 kmh 30.16 in1021.3 mb 0.00 in0.0 mm 0.00 in0.0 mm 0.00 in0.0 mm
04:00 PM 25.6°F-3.6°C 17.2°F-8.2°C 70% 7.0 mph SSE11.3 kmh SSE 21.0 mph33.8 kmh 30.16 in1021.3 mb 0.00 in0.0 mm 0.00 in0.0 mm 0.00 in0.0 mm
04:02 PM 25.6°F-3.6°C 17.2°F-8.2°C 70% 7.0 mph SSE11.3 kmh SSE 15.0 mph24.1 kmh 30.16 in1021.3 mb 0.00 in0.0 mm 0.00 in0.0 mm 0.00 in0.0 mm
04:04 PM 25.5°F-3.6°C 17.1°F-8.3°C 70% 7.0 mph SSE11.3 kmh SSE 15.0 mph24.1 kmh 30.16 in1021.3 mb 0.00 in0.0 mm 0.00 in0.0 mm 0.00 in0.0 mm
04:06 PM 25.5°F-3.6°C 17.1°F-8.3°C 70% 7.0 mph SSE11.3 kmh SSE 15.0 mph24.1 kmh 30.16 in1021.3 mb 0.00 in0.0 mm 0.00 in0.0 mm 0.00 in0.0 mm
04:08 PM 25.5°F-3.6°C 17.1°F-8.3°C 70% 7.0 mph S11.3 kmh S 16.0 mph25.7 kmh 30.16 in1021.3 mb 0.00 in0.0 mm 0.00 in0.0 mm 0.00 in0.0 mm
04:10 PM 25.6°F-3.6°C 17.2°F-8.2°C 70% 8.0 mph S12.9 kmh S 18.0 mph29.0 kmh 30.16 in1021.3 mb 0.00 in0.0 mm 0.00 in0.0 mm 0.00 in0.0 mm
04:12 PM 25.6°F-3.6°C 17.5°F-8.1°C 71% 8.0 mph S12.9 kmh S 18.0 mph29.0 kmh 30.16 in1021.3 mb 0.00 in0.0 mm 0.00 in0.0 mm 0.00 in0.0 mm
04:14 PM 25.6°F-3.6°C 17.5°F-8.1°C 71% 9.0 mph S14.5 kmh S 18.0 mph29.0 kmh 30.16 in1021.3 mb 0.00 in0.0 mm 0.00 in0.0 mm 0.00 in0.0 mm
04:16 PM 25.6°F-3.6°C 17.5°F-8.1°C 71% 9.0 mph S14.5 kmh S 18.0 mph29.0 kmh 30.16 in1021.3 mb 0.00 in0.0 mm 0.00 in0.0 mm 0.00 in0.0 mm
04:18 PM 25.6°F-3.6°C 17.5°F-8.1°C 71% 8.0 mph SSE12.9 kmh SSE 18.0 mph29.0 kmh 30.16 in1021.3 mb 0.00 in0.0 mm 0.00 in0.0 mm 0.00 in0.0 mm
04:20 PM 25.6°F-3.6°C 17.5°F-8.1°C 71% 7.0 mph SSE11.3 kmh SSE 16.0 mph25.7 kmh 30.16 in1021.3 mb 0.00 in0.0 mm 0.00 in0.0 mm 0.00 in0.0 mm
04:22 PM 25.6°F-3.6°C 17.5°F-8.1°C 71% 7.0 mph SSE11.3 kmh SSE 16.0 mph25.7 kmh 30.16 in1021.3 mb 0.00 in0.0 mm 0.00 in0.0 mm 0.00 in0.0 mm
04:24 PM 25.6°F-3.6°C 17.5°F-8.1°C 71% 6.0 mph SSE9.7 kmh SSE 14.0 mph22.5 kmh 30.16 in1021.3 mb 0.00 in0.0 mm 0.00 in0.0 mm 0.00 in0.0 mm
04:26 PM 25.6°F-3.6°C 17.5°F-8.1°C 71% 6.0 mph SSE9.7 kmh SSE 13.0 mph20.9 kmh 30.16 in1021.3 mb 0.00 in0.0 mm 0.00 in0.0 mm 0.00 in0.0 mm
04:28 PM 25.6°F-3.6°C 17.8°F-7.9°C 72% 6.0 mph SSE9.7 kmh SSE 11.0 mph17.7 kmh 30.16 in1021.3 mb 0.00 in0.0 mm 0.00 in0.0 mm 0.00 in0.0 mm
04:30 PM 25.7°F-3.5°C 17.9°F-7.8°C 72% 6.0 mph SSE9.7 kmh SSE 11.0 mph17.7 kmh 30.16 in1021.3 mb 0.00 in0.0 mm 0.00 in0.0 mm 0.00 in0.0 mm
04:32 PM 25.7°F-3.5°C 17.9°F-7.8°C 72% 6.0 mph S9.7 kmh S 11.0 mph17.7 kmh 30.16 in1021.3 mb 0.00 in0.0 mm 0.00 in0.0 mm 0.00 in0.0 mm
04:34 PM 25.7°F-3.5°C 17.9°F-7.8°C 72% 6.0 mph S9.7 kmh S 15.0 mph24.1 kmh 30.16 in1021.3 mb 0.00 in0.0 mm 0.00 in0.0 mm 0.00 in0.0 mm
04:36 PM 25.7°F-3.5°C 17.9°F-7.8°C 72% 6.0 mph S9.7 kmh S 15.0 mph24.1 kmh 30.16 in1021.3 mb 0.00 in0.0 mm 0.00 in0.0 mm 0.00 in0.0 mm
04:38 PM 25.7°F-3.5°C 17.9°F-7.8°C 72% 7.0 mph S11.3 kmh S 15.0 mph24.1 kmh 30.16 in1021.3 mb 0.00 in0.0 mm 0.00 in0.0 mm 0.00 in0.0 mm
04:40 PM 25.7°F-3.5°C 17.9°F-7.8°C 72% 8.0 mph S12.9 kmh S 15.0 mph24.1 kmh 30.16 in1021.3 mb 0.00 in0.0 mm 0.00 in0.0 mm 0.00 in0.0 mm
04:42 PM 25.7°F-3.5°C 18.2°F-7.7°C 73% 7.0 mph S11.3 kmh S 15.0 mph24.1 kmh 30.16 in1021.3 mb 0.00 in0.0 mm 0.00 in0.0 mm 0.00 in0.0 mm
04:44 PM 25.7°F-3.5°C 18.2°F-7.7°C 73% 8.0 mph S12.9 kmh S 14.0 mph22.5 kmh 30.16 in1021.3 mb 0.00 in0.0 mm 0.00 in0.0 mm 0.00 in0.0 mm
04:46 PM 25.7°F-3.5°C 18.2°F-7.7°C 73% 8.0 mph S12.9 kmh S 15.0 mph24.1 kmh 30.16 in1021.3 mb 0.00 in0.0 mm 0.00 in0.0 mm 0.00 in0.0 mm
04:48 PM 25.7°F-3.5°C 18.2°F-7.7°C 73% 8.0 mph S12.9 kmh S 15.0 mph24.1 kmh 30.17 in1021.7 mb 0.00 in0.0 mm 0.00 in0.0 mm 0.00 in0.0 mm
04:50 PM 25.7°F-3.5°C 18.2°F-7.7°C 73% 8.0 mph S12.9 kmh S 15.0 mph24.1 kmh 30.18 in1022.0 mb 0.00 in0.0 mm 0.00 in0.0 mm 0.00 in0.0 mm
04:52 PM 25.7°F-3.5°C 18.2°F-7.7°C 73% 8.0 mph S12.9 kmh S 15.0 mph24.1 kmh 30.18 in1022.0 mb 0.00 in0.0 mm 0.00 in0.0 mm 0.00 in0.0 mm
04:54 PM 25.7°F-3.5°C 18.2°F-7.7°C 73% 9.0 mph S14.5 kmh S 15.0 mph24.1 kmh 30.18 in1022.0 mb 0.00 in0.0 mm 0.00 in0.0 mm 0.00 in0.0 mm
04:56 PM 25.7°F-3.5°C 18.6°F-7.4°C 74% 9.0 mph S14.5 kmh S 15.0 mph24.1 kmh 30.18 in1022.0 mb 0.00 in0.0 mm 0.00 in0.0 mm 0.00 in0.0 mm
04:58 PM 25.7°F-3.5°C 18.6°F-7.4°C 74% 9.0 mph S14.5 kmh S 15.0 mph24.1 kmh 30.18 in1022.0 mb 0.00 in0.0 mm 0.00 in0.0 mm 0.00 in0.0 mm
05:00 PM 25.7°F-3.5°C 18.6°F-7.4°C 74% 9.0 mph S14.5 kmh S 15.0 mph24.1 kmh 30.18 in1022.0 mb 0.00 in0.0 mm 0.00 in0.0 mm 0.00 in0.0 mm
05:02 PM 25.7°F-3.5°C 18.9°F-7.3°C 75% 8.0 mph S12.9 kmh S 15.0 mph24.1 kmh 30.18 in1022.0 mb 0.00 in0.0 mm 0.00 in0.0 mm 0.00 in0.0 mm
05:04 PM 25.7°F-3.5°C 18.9°F-7.3°C 75% 7.0 mph S11.3 kmh S 15.0 mph24.1 kmh 30.18 in1022.0 mb 0.00 in0.0 mm 0.00 in0.0 mm 0.00 in0.0 mm
05:06 PM 25.6°F-3.6°C 18.8°F-7.3°C 75% 7.0 mph S11.3 kmh S 15.0 mph24.1 kmh 30.18 in1022.0 mb 0.00 in0.0 mm 0.00 in0.0 mm 0.00 in0.0 mm
05:08 PM 25.7°F-3.5°C 18.9°F-7.3°C 75% 6.0 mph S9.7 kmh S 11.0 mph17.7 kmh 30.18 in1022.0 mb 0.00 in0.0 mm 0.00 in0.0 mm 0.00 in0.0 mm
05:10 PM 25.7°F-3.5°C 19.2°F-7.1°C 76% 6.0 mph S9.7 kmh S 11.0 mph17.7 kmh 30.18 in1022.0 mb 0.00 in0.0 mm 0.00 in0.0 mm 0.00 in0.0 mm
05:12 PM 25.7°F-3.5°C 19.2°F-7.1°C 76% 6.0 mph S9.7 kmh S 11.0 mph17.7 kmh 30.18 in1022.0 mb 0.00 in0.0 mm 0.00 in0.0 mm 0.00 in0.0 mm
05:14 PM 25.7°F-3.5°C 19.2°F-7.1°C 76% 6.0 mph S9.7 kmh S 11.0 mph17.7 kmh 30.18 in1022.0 mb 0.00 in0.0 mm 0.00 in0.0 mm 0.00 in0.0 mm
05:16 PM 25.7°F-3.5°C 19.2°F-7.1°C 76% 5.0 mph S8.0 kmh S 11.0 mph17.7 kmh 30.18 in1022.0 mb 0.00 in0.0 mm 0.00 in0.0 mm 0.00 in0.0 mm
05:18 PM 25.7°F-3.5°C 19.2°F-7.1°C 76% 5.0 mph S8.0 kmh S 11.0 mph17.7 kmh 30.18 in1022.0 mb 0.00 in0.0 mm 0.00 in0.0 mm 0.00 in0.0 mm
05:20 PM 25.7°F-3.5°C 19.2°F-7.1°C 76% 5.0 mph S8.0 kmh S 13.0 mph20.9 kmh 30.17 in1021.7 mb 0.00 in0.0 mm 0.00 in0.0 mm 0.00 in0.0 mm
05:22 PM 25.7°F-3.5°C 19.2°F-7.1°C 76% 5.0 mph S8.0 kmh S 13.0 mph20.9 kmh 30.17 in1021.7 mb 0.00 in0.0 mm 0.00 in0.0 mm 0.00 in0.0 mm
05:24 PM 25.7°F-3.5°C 19.2°F-7.1°C 76% 5.0 mph S8.0 kmh S 13.0 mph20.9 kmh 30.18 in1022.0 mb 0.00 in0.0 mm 0.00 in0.0 mm 0.00 in0.0 mm
05:26 PM 25.8°F-3.4°C 19.3°F-7.1°C 76% 5.0 mph S8.0 kmh S 13.0 mph20.9 kmh 30.18 in1022.0 mb 0.00 in0.0 mm 0.00 in0.0 mm 0.00 in0.0 mm
05:28 PM 25.8°F-3.4°C 19.3°F-7.1°C 76% 5.0 mph S8.0 kmh S 13.0 mph20.9 kmh 30.18 in1022.0 mb 0.00 in0.0 mm 0.00 in0.0 mm 0.00 in0.0 mm
05:30 PM 25.8°F-3.4°C 19.3°F-7.1°C 76% 5.0 mph S8.0 kmh S 13.0 mph20.9 kmh 30.18 in1022.0 mb 0.00 in0.0 mm 0.00 in0.0 mm 0.00 in0.0 mm
05:32 PM 25.8°F-3.4°C 19.3°F-7.1°C 76% 5.0 mph S8.0 kmh S 11.0 mph17.7 kmh 30.18 in1022.0 mb 0.00 in0.0 mm 0.00 in0.0 mm 0.00 in0.0 mm
05:34 PM 25.8°F-3.4°C 19.3°F-7.1°C 76% 5.0 mph S8.0 kmh S 11.0 mph17.7 kmh 30.18 in1022.0 mb 0.00 in0.0 mm 0.00 in0.0 mm 0.00 in0.0 mm
05:36 PM 25.8°F-3.4°C 19.3°F-7.1°C 76% 5.0 mph SSE8.0 kmh SSE 10.0 mph16.1 kmh 30.18 in1022.0 mb 0.00 in0.0 mm 0.00 in0.0 mm 0.00 in0.0 mm
05:38 PM 25.8°F-3.4°C 19.3°F-7.1°C 76% 5.0 mph S8.0 kmh S 10.0 mph16.1 kmh 30.18 in1022.0 mb 0.00 in0.0 mm 0.00 in0.0 mm 0.00 in0.0 mm
05:40 PM 25.9°F-3.4°C 19.4°F-7.0°C 76% 5.0 mph S8.0 kmh S 12.0 mph19.3 kmh 30.18 in1022.0 mb 0.00 in0.0 mm 0.00 in0.0 mm 0.00 in0.0 mm
05:42 PM 25.9°F-3.4°C 19.4°F-7.0°C 76% 6.0 mph S9.7 kmh S 12.0 mph19.3 kmh 30.18 in1022.0 mb 0.00 in0.0 mm 0.00 in0.0 mm 0.00 in0.0 mm
05:44 PM 25.9°F-3.4°C 19.4°F-7.0°C 76% 6.0 mph S9.7 kmh S 12.0 mph19.3 kmh 30.18 in1022.0 mb 0.00 in0.0 mm 0.00 in0.0 mm 0.00 in0.0 mm
05:46 PM 26.0°F-3.3°C 19.5°F-6.9°C 76% 6.0 mph S9.7 kmh S 12.0 mph19.3 kmh 30.19 in1022.4 mb 0.00 in0.0 mm 0.00 in0.0 mm 0.00 in0.0 mm
05:48 PM 26.0°F-3.3°C 19.5°F-6.9°C 76% 6.0 mph S9.7 kmh S 13.0 mph20.9 kmh 30.19 in1022.4 mb 0.00 in0.0 mm 0.00 in0.0 mm 0.00 in0.0 mm
05:50 PM 26.0°F-3.3°C 19.5°F-6.9°C 76% 7.0 mph S11.3 kmh S 13.0 mph20.9 kmh 30.18 in1022.0 mb 0.00 in0.0 mm 0.00 in0.0 mm 0.00 in0.0 mm
05:52 PM 26.1°F-3.3°C 19.6°F-6.9°C 76% 7.0 mph S11.3 kmh S 13.0 mph20.9 kmh 30.19 in1022.4 mb 0.00 in0.0 mm 0.00 in0.0 mm 0.00 in0.0 mm
05:54 PM 26.0°F-3.3°C 19.5°F-6.9°C 76% 7.0 mph S11.3 kmh S 13.0 mph20.9 kmh 30.18 in1022.0 mb 0.00 in0.0 mm 0.00 in0.0 mm 0.00 in0.0 mm
05:56 PM 26.1°F-3.3°C 19.6°F-6.9°C 76% 7.0 mph S11.3 kmh S 13.0 mph20.9 kmh 30.19 in1022.4 mb 0.00 in0.0 mm 0.00 in0.0 mm 0.00 in0.0 mm
05:58 PM 26.1°F-3.3°C 19.6°F-6.9°C 76% 6.0 mph S9.7 kmh S 13.0 mph20.9 kmh 30.19 in1022.4 mb 0.00 in0.0 mm 0.00 in0.0 mm 0.00 in0.0 mm
06:00 PM 26.1°F-3.3°C 19.6°F-6.9°C 76% 6.0 mph S9.7 kmh S 12.0 mph19.3 kmh 30.19 in1022.4 mb 0.00 in0.0 mm 0.00 in0.0 mm 0.00 in0.0 mm
06:02 PM 26.1°F-3.3°C 19.6°F-6.9°C 76% 6.0 mph S9.7 kmh S 12.0 mph19.3 kmh 30.19 in1022.4 mb 0.00 in0.0 mm 0.00 in0.0 mm 0.00 in0.0 mm
06:04 PM 26.0°F-3.3°C 19.5°F-6.9°C 76% 6.0 mph S9.7 kmh S 13.0 mph20.9 kmh 30.19 in1022.4 mb 0.00 in0.0 mm 0.00 in0.0 mm 0.00 in0.0 mm
06:06 PM 26.1°F-3.3°C 19.6°F-6.9°C 76% 7.0 mph S11.3 kmh S 13.0 mph20.9 kmh 30.18 in1022.0 mb 0.00 in0.0 mm 0.00 in0.0 mm 0.00 in0.0 mm
06:08 PM 26.1°F-3.3°C 19.6°F-6.9°C 76% 6.0 mph S9.7 kmh S 13.0 mph20.9 kmh 30.18 in1022.0 mb 0.00 in0.0 mm 0.00 in0.0 mm 0.00 in0.0 mm
06:10 PM 26.1°F-3.3°C 19.6°F-6.9°C 76% 6.0 mph S9.7 kmh S 13.0 mph20.9 kmh 30.18 in1022.0 mb 0.00 in0.0 mm 0.00 in0.0 mm 0.00 in0.0 mm
06:12 PM 26.1°F-3.3°C 19.6°F-6.9°C 76% 6.0 mph S9.7 kmh S 13.0 mph20.9 kmh 30.18 in1022.0 mb 0.00 in0.0 mm 0.00 in0.0 mm 0.00 in0.0 mm
06:14 PM 26.1°F-3.3°C 19.6°F-6.9°C 76% 6.0 mph S9.7 kmh S 12.0 mph19.3 kmh 30.19 in1022.4 mb 0.00 in0.0 mm 0.00 in0.0 mm 0.00 in0.0 mm
06:16 PM 26.1°F-3.3°C 19.6°F-6.9°C 76% 6.0 mph S9.7 kmh S 12.0 mph19.3 kmh 30.19 in1022.4 mb 0.00 in0.0 mm 0.00 in0.0 mm 0.00 in0.0 mm
06:18 PM 26.1°F-3.3°C 19.6°F-6.9°C 76% 6.0 mph S9.7 kmh S 12.0 mph19.3 kmh 30.19 in1022.4 mb 0.00 in0.0 mm 0.00 in0.0 mm 0.00 in0.0 mm
06:20 PM 26.1°F-3.3°C 19.6°F-6.9°C 76% 6.0 mph S9.7 kmh S 11.0 mph17.7 kmh 30.19 in1022.4 mb 0.00 in0.0 mm 0.00 in0.0 mm 0.00 in0.0 mm
06:22 PM 26.1°F-3.3°C 19.6°F-6.9°C 76% 6.0 mph S9.7 kmh S 11.0 mph17.7 kmh 30.19 in1022.4 mb 0.00 in0.0 mm 0.00 in0.0 mm 0.00 in0.0 mm
06:24 PM 26.1°F-3.3°C 19.6°F-6.9°C 76% 6.0 mph S9.7 kmh S 11.0 mph17.7 kmh 30.19 in1022.4 mb 0.00 in0.0 mm 0.00 in0.0 mm 0.00 in0.0 mm
06:26 PM 26.1°F-3.3°C 19.6°F-6.9°C 76% 6.0 mph S9.7 kmh S 12.0 mph19.3 kmh 30.20 in1022.7 mb 0.00 in0.0 mm 0.00 in0.0 mm 0.00 in0.0 mm
06:28 PM 26.2°F-3.2°C 19.7°F-6.8°C 76% 6.0 mph S9.7 kmh S 12.0 mph19.3 kmh 30.20 in1022.7 mb 0.00 in0.0 mm 0.00 in0.0 mm 0.00 in0.0 mm
06:30 PM 26.2°F-3.2°C 19.7°F-6.8°C 76% 6.0 mph S9.7 kmh S 12.0 mph19.3 kmh 30.19 in1022.4 mb 0.00 in0.0 mm 0.00 in0.0 mm 0.00 in0.0 mm
06:32 PM 26.2°F-3.2°C 19.7°F-6.8°C 76% 6.0 mph S9.7 kmh S 12.0 mph19.3 kmh 30.19 in1022.4 mb 0.00 in0.0 mm 0.00 in0.0 mm 0.00 in0.0 mm
06:34 PM 26.1°F-3.3°C 19.3°F-7.1°C 75% 6.0 mph S9.7 kmh S 14.0 mph22.5 kmh 30.18 in1022.0 mb 0.00 in0.0 mm 0.00 in0.0 mm 0.00 in0.0 mm
06:36 PM 26.2°F-3.2°C 19.7°F-6.8°C 76% 6.0 mph S9.7 kmh S 14.0 mph22.5 kmh 30.18 in1022.0 mb 0.00 in0.0 mm 0.00 in0.0 mm 0.00 in0.0 mm
06:38 PM 26.2°F-3.2°C 19.7°F-6.8°C 76% 6.0 mph S9.7 kmh S 14.0 mph22.5 kmh 30.18 in1022.0 mb 0.00 in0.0 mm 0.00 in0.0 mm 0.00 in0.0 mm
06:40 PM 26.2°F-3.2°C 19.7°F-6.8°C 76% 6.0 mph S9.7 kmh S 14.0 mph22.5 kmh 30.18 in1022.0 mb 0.00 in0.0 mm 0.00 in0.0 mm 0.00 in0.0 mm
06:42 PM 26.2°F-3.2°C 19.7°F-6.8°C 76% 6.0 mph S9.7 kmh S 14.0 mph22.5 kmh 30.19 in1022.4 mb 0.00 in0.0 mm 0.00 in0.0 mm 0.00 in0.0 mm
06:44 PM 26.2°F-3.2°C 19.7°F-6.8°C 76% 6.0 mph S9.7 kmh S 11.0 mph17.7 kmh 30.18 in1022.0 mb 0.00 in0.0 mm 0.00 in0.0 mm 0.00 in0.0 mm
06:46 PM 26.2°F-3.2°C 19.7°F-6.8°C 76% 5.0 mph S8.0 kmh S 11.0 mph17.7 kmh 30.18 in1022.0 mb 0.00 in0.0 mm 0.00 in0.0 mm 0.00 in0.0 mm
06:48 PM 26.2°F-3.2°C 19.7°F-6.8°C 76% 5.0 mph S8.0 kmh S 11.0 mph17.7 kmh 30.19 in1022.4 mb 0.00 in0.0 mm 0.00 in0.0 mm 0.00 in0.0 mm
06:50 PM 26.2°F-3.2°C 19.7°F-6.8°C 76% 5.0 mph S8.0 kmh S 11.0 mph17.7 kmh 30.19 in1022.4 mb 0.00 in0.0 mm 0.00 in0.0 mm 0.00 in0.0 mm
06:52 PM 26.2°F-3.2°C 19.7°F-6.8°C 76% 5.0 mph S8.0 kmh S 11.0 mph17.7 kmh 30.19 in1022.4 mb 0.00 in0.0 mm 0.00 in0.0 mm 0.00 in0.0 mm
06:54 PM 26.2°F-3.2°C 19.7°F-6.8°C 76% 5.0 mph S8.0 kmh S 11.0 mph17.7 kmh 30.18 in1022.0 mb 0.00 in0.0 mm 0.00 in0.0 mm 0.00 in0.0 mm
06:56 PM 26.2°F-3.2°C 19.7°F-6.8°C 76% 5.0 mph S8.0 kmh S 11.0 mph17.7 kmh 30.19 in1022.4 mb 0.00 in0.0 mm 0.00 in0.0 mm 0.00 in0.0 mm
06:58 PM 26.1°F-3.3°C 19.6°F-6.9°C 76% 5.0 mph S8.0 kmh S 11.0 mph17.7 kmh 30.18 in1022.0 mb 0.00 in0.0 mm 0.00 in0.0 mm 0.00 in0.0 mm
07:00 PM 26.1°F-3.3°C 19.6°F-6.9°C 76% 5.0 mph S8.0 kmh S 11.0 mph17.7 kmh 30.19 in1022.4 mb 0.00 in0.0 mm 0.00 in0.0 mm 0.00 in0.0 mm
07:02 PM 26.1°F-3.3°C 19.6°F-6.9°C 76% 5.0 mph S8.0 kmh S 9.0 mph14.5 kmh 30.19 in1022.4 mb 0.00 in0.0 mm 0.00 in0.0 mm 0.00 in0.0 mm
07:04 PM 26.0°F-3.3°C 19.5°F-6.9°C 76% 5.0 mph S8.0 kmh S 13.0 mph20.9 kmh 30.19 in1022.4 mb 0.00 in0.0 mm 0.00 in0.0 mm 0.00 in0.0 mm
07:06 PM 25.9°F-3.4°C 19.4°F-7.0°C 76% 5.0 mph S8.0 kmh S 13.0 mph20.9 kmh 30.19 in1022.4 mb 0.00 in0.0 mm 0.00 in0.0 mm 0.00 in0.0 mm
07:08 PM 25.9°F-3.4°C 19.4°F-7.0°C 76% 5.0 mph S8.0 kmh S 13.0 mph20.9 kmh 30.19 in1022.4 mb 0.00 in0.0 mm 0.00 in0.0 mm 0.00 in0.0 mm
07:10 PM 25.8°F-3.4°C 19.3°F-7.1°C 76% 5.0 mph S8.0 kmh S 13.0 mph20.9 kmh 30.19 in1022.4 mb 0.00 in0.0 mm 0.00 in0.0 mm 0.00 in0.0 mm
07:12 PM 25.8°F-3.4°C 19.3°F-7.1°C 76% 5.0 mph S8.0 kmh S 13.0 mph20.9 kmh 30.19 in1022.4 mb 0.00 in0.0 mm 0.00 in0.0 mm 0.00 in0.0 mm
07:14 PM 25.8°F-3.4°C 19.3°F-7.1°C 76% 5.0 mph S8.0 kmh S 13.0 mph20.9 kmh 30.19 in1022.4 mb 0.00 in0.0 mm 0.00 in0.0 mm 0.00 in0.0 mm
07:16 PM 25.8°F-3.4°C 19.3°F-7.1°C 76% 5.0 mph S8.0 kmh S 13.0 mph20.9 kmh 30.19 in1022.4 mb 0.00 in0.0 mm 0.00 in0.0 mm 0.00 in0.0 mm
07:18 PM 25.8°F-3.4°C 19.3°F-7.1°C 76% 5.0 mph S8.0 kmh S 13.0 mph20.9 kmh 30.19 in1022.4 mb 0.00 in0.0 mm 0.00 in0.0 mm 0.00 in0.0 mm
07:20 PM 25.8°F-3.4°C 19.3°F-7.1°C 76% 5.0 mph S8.0 kmh S 12.0 mph19.3 kmh 30.19 in1022.4 mb 0.00 in0.0 mm 0.00 in0.0 mm 0.00 in0.0 mm
07:22 PM 25.8°F-3.4°C 19.3°F-7.1°C 76% 6.0 mph S9.7 kmh S 12.0 mph19.3 kmh 30.19 in1022.4 mb 0.00 in0.0 mm 0.00 in0.0 mm 0.00 in0.0 mm
07:24 PM 25.8°F-3.4°C 19.6°F-6.9°C 77% 6.0 mph S9.7 kmh S 12.0 mph19.3 kmh 30.19 in1022.4 mb 0.00 in0.0 mm 0.00 in0.0 mm 0.00 in0.0 mm
07:26 PM 25.8°F-3.4°C 19.6°F-6.9°C 77% 6.0 mph S9.7 kmh S 12.0 mph19.3 kmh 30.19 in1022.4 mb 0.00 in0.0 mm 0.00 in0.0 mm 0.00 in0.0 mm
07:28 PM 25.8°F-3.4°C 19.6°F-6.9°C 77% 6.0 mph S9.7 kmh S 12.0 mph19.3 kmh 30.19 in1022.4 mb 0.00 in0.0 mm 0.00 in0.0 mm 0.00 in0.0 mm
07:30 PM 25.9°F-3.4°C 19.7°F-6.8°C 77% 6.0 mph S9.7 kmh S 12.0 mph19.3 kmh 30.19 in1022.4 mb 0.00 in0.0 mm 0.00 in0.0 mm 0.00 in0.0 mm
07:32 PM 25.8°F-3.4°C 19.6°F-6.9°C 77% 5.0 mph S8.0 kmh S 10.0 mph16.1 kmh 30.19 in1022.4 mb 0.00 in0.0 mm 0.00 in0.0 mm 0.00 in0.0 mm
07:34 PM 25.8°F-3.4°C 19.6°F-6.9°C 77% 5.0 mph S8.0 kmh S 10.0 mph16.1 kmh 30.19 in1022.4 mb 0.00 in0.0 mm 0.00 in0.0 mm 0.00 in0.0 mm
07:36 PM 25.9°F-3.4°C 19.7°F-6.8°C 77% 5.0 mph S8.0 kmh S 10.0 mph16.1 kmh 30.19 in1022.4 mb 0.00 in0.0 mm 0.00 in0.0 mm 0.00 in0.0 mm
07:38 PM 25.9°F-3.4°C 19.7°F-6.8°C 77% 5.0 mph S8.0 kmh S 11.0 mph17.7 kmh 30.19 in1022.4 mb 0.00 in0.0 mm 0.00 in0.0 mm 0.00 in0.0 mm
07:40 PM 25.9°F-3.4°C 20.0°F-6.7°C 78% 6.0 mph S9.7 kmh S 11.0 mph17.7 kmh 30.19 in1022.4 mb 0.00 in0.0 mm 0.00 in0.0 mm 0.00 in0.0 mm
07:42 PM 25.9°F-3.4°C 20.0°F-6.7°C 78% 6.0 mph S9.7 kmh S 11.0 mph17.7 kmh 30.19 in1022.4 mb 0.00 in0.0 mm 0.00 in0.0 mm 0.00 in0.0 mm
07:44 PM 25.9°F-3.4°C 20.0°F-6.7°C 78% 5.0 mph S8.0 kmh S 11.0 mph17.7 kmh 30.19 in1022.4 mb 0.00 in0.0 mm 0.00 in0.0 mm 0.00 in0.0 mm
07:46 PM 26.0°F-3.3°C 20.1°F-6.6°C 78% 5.0 mph S8.0 kmh S 11.0 mph17.7 kmh 30.18 in1022.0 mb 0.00 in0.0 mm 0.00 in0.0 mm 0.00 in0.0 mm
07:48 PM 26.0°F-3.3°C 20.1°F-6.6°C 78% 5.0 mph S8.0 kmh S 11.0 mph17.7 kmh 30.19 in1022.4 mb 0.00 in0.0 mm 0.00 in0.0 mm 0.00 in0.0 mm
07:50 PM 26.0°F-3.3°C 20.1°F-6.6°C 78% 5.0 mph S8.0 kmh S 9.0 mph14.5 kmh 30.18 in1022.0 mb 0.00 in0.0 mm 0.00 in0.0 mm 0.00 in0.0 mm
07:52 PM 26.0°F-3.3°C 20.1°F-6.6°C 78% 4.0 mph S6.4 kmh S 9.0 mph14.5 kmh 30.18 in1022.0 mb 0.00 in0.0 mm 0.00 in0.0 mm 0.00 in0.0 mm
07:54 PM 26.0°F-3.3°C 20.1°F-6.6°C 78% 5.0 mph S8.0 kmh S 9.0 mph14.5 kmh 30.18 in1022.0 mb 0.00 in0.0 mm 0.00 in0.0 mm 0.00 in0.0 mm
07:56 PM 26.0°F-3.3°C 20.4°F-6.4°C 79% 5.0 mph S8.0 kmh S 10.0 mph16.1 kmh 30.18 in1022.0 mb 0.00 in0.0 mm 0.00 in0.0 mm 0.00 in0.0 mm
07:58 PM 26.0°F-3.3°C 20.4°F-6.4°C 79% 5.0 mph S8.0 kmh S 10.0 mph16.1 kmh 30.18 in1022.0 mb 0.00 in0.0 mm 0.00 in0.0 mm 0.00 in0.0 mm
08:00 PM 26.0°F-3.3°C 20.4°F-6.4°C 79% 5.0 mph S8.0 kmh S 10.0 mph16.1 kmh 30.18 in1022.0 mb 0.00 in0.0 mm 0.00 in0.0 mm 0.00 in0.0 mm
08:02 PM 26.0°F-3.3°C 20.4°F-6.4°C 79% 5.0 mph S8.0 kmh S 10.0 mph16.1 kmh 30.18 in1022.0 mb 0.00 in0.0 mm 0.00 in0.0 mm 0.00 in0.0 mm
08:04 PM 26.0°F-3.3°C 20.4°F-6.4°C 79% 5.0 mph S8.0 kmh S 10.0 mph16.1 kmh 30.19 in1022.4 mb 0.00 in0.0 mm 0.00 in0.0 mm 0.00 in0.0 mm
08:06 PM 26.0°F-3.3°C 20.4°F-6.4°C 79% 4.0 mph S6.4 kmh S 9.0 mph14.5 kmh 30.19 in1022.4 mb 0.00 in0.0 mm 0.00 in0.0 mm 0.00 in0.0 mm
08:08 PM 26.1°F-3.3°C 20.5°F-6.4°C 79% 5.0 mph S8.0 kmh S 9.0 mph14.5 kmh 30.19 in1022.4 mb 0.00 in0.0 mm 0.00 in0.0 mm 0.00 in0.0 mm
08:10 PM 26.1°F-3.3°C 20.5°F-6.4°C 79% 5.0 mph S8.0 kmh S 8.0 mph12.9 kmh 30.19 in1022.4 mb 0.00 in0.0 mm 0.00 in0.0 mm 0.00 in0.0 mm
08:12 PM 26.1°F-3.3°C 20.5°F-6.4°C 79% 5.0 mph S8.0 kmh S 9.0 mph14.5 kmh 30.19 in1022.4 mb 0.00 in0.0 mm 0.00 in0.0 mm 0.00 in0.0 mm
08:14 PM 26.1°F-3.3°C 20.5°F-6.4°C 79% 5.0 mph S8.0 kmh S 11.0 mph17.7 kmh 30.19 in1022.4 mb 0.00 in0.0 mm 0.00 in0.0 mm 0.00 in0.0 mm
08:16 PM 26.1°F-3.3°C 20.5°F-6.4°C 79% 5.0 mph S8.0 kmh S 11.0 mph17.7 kmh 30.20 in1022.7 mb 0.00 in0.0 mm 0.00 in0.0 mm 0.00 in0.0 mm
08:18 PM 26.2°F-3.2°C 20.6°F-6.3°C 79% 5.0 mph S8.0 kmh S 11.0 mph17.7 kmh 30.20 in1022.7 mb 0.00 in0.0 mm 0.00 in0.0 mm 0.00 in0.0 mm
08:20 PM 26.2°F-3.2°C 20.6°F-6.3°C 79% 5.0 mph S8.0 kmh S 11.0 mph17.7 kmh 30.20 in1022.7 mb 0.00 in0.0 mm 0.00 in0.0 mm 0.00 in0.0 mm
08:22 PM 26.2°F-3.2°C 20.6°F-6.3°C 79% 6.0 mph S9.7 kmh S 11.0 mph17.7 kmh 30.20 in1022.7 mb 0.00 in0.0 mm 0.00 in0.0 mm 0.00 in0.0 mm
08:24 PM 26.2°F-3.2°C 20.9°F-6.2°C 80% 5.0 mph S8.0 kmh S 10.0 mph16.1 kmh 30.20 in1022.7 mb 0.00 in0.0 mm 0.00 in0.0 mm 0.00 in0.0 mm
08:26 PM 26.2°F-3.2°C 20.9°F-6.2°C 80% 5.0 mph S8.0 kmh S 10.0 mph16.1 kmh 30.19 in1022.4 mb 0.00 in0.0 mm 0.00 in0.0 mm 0.00 in0.0 mm
08:28 PM 26.2°F-3.2°C 20.9°F-6.2°C 80% 5.0 mph S8.0 kmh S 10.0 mph16.1 kmh 30.19 in1022.4 mb 0.00 in0.0 mm 0.00 in0.0 mm 0.00 in0.0 mm
08:30 PM 26.2°F-3.2°C 20.9°F-6.2°C 80% 5.0 mph S8.0 kmh S 10.0 mph16.1 kmh 30.20 in1022.7 mb 0.00 in0.0 mm 0.00 in0.0 mm 0.00 in0.0 mm
08:32 PM 26.2°F-3.2°C 20.9°F-6.2°C 80% 5.0 mph S8.0 kmh S 9.0 mph14.5 kmh 30.20 in1022.7 mb 0.00 in0.0 mm 0.00 in0.0 mm 0.00 in0.0 mm
08:34 PM 26.2°F-3.2°C 20.9°F-6.2°C 80% 5.0 mph S8.0 kmh S 9.0 mph14.5 kmh 30.20 in1022.7 mb 0.00 in0.0 mm 0.00 in0.0 mm 0.00 in0.0 mm
08:36 PM 26.2°F-3.2°C 20.9°F-6.2°C 80% 5.0 mph S8.0 kmh S 10.0 mph16.1 kmh 30.20 in1022.7 mb 0.00 in0.0 mm 0.00 in0.0 mm 0.00 in0.0 mm
08:38 PM 26.2°F-3.2°C 20.9°F-6.2°C 80% 4.0 mph S6.4 kmh S 10.0 mph16.1 kmh 30.20 in1022.7 mb 0.00 in0.0 mm 0.00 in0.0 mm 0.00 in0.0 mm
08:40 PM 26.3°F-3.2°C 21.0°F-6.1°C 80% 4.0 mph S6.4 kmh S 10.0 mph16.1 kmh 30.19 in1022.4 mb 0.00 in0.0 mm 0.00 in0.0 mm 0.00 in0.0 mm
08:42 PM 26.3°F-3.2°C 21.0°F-6.1°C 80% 4.0 mph S6.4 kmh S 10.0 mph16.1 kmh 30.19 in1022.4 mb 0.00 in0.0 mm 0.00 in0.0 mm 0.00 in0.0 mm
08:44 PM 26.3°F-3.2°C 21.0°F-6.1°C 80% 4.0 mph S6.4 kmh S 10.0 mph16.1 kmh 30.19 in1022.4 mb 0.00 in0.0 mm 0.00 in0.0 mm 0.00 in0.0 mm
08:46 PM 26.3°F-3.2°C 21.0°F-6.1°C 80% 4.0 mph S6.4 kmh S 10.0 mph16.1 kmh 30.20 in1022.7 mb 0.00 in0.0 mm 0.00 in0.0 mm 0.00 in0.0 mm
08:48 PM 26.3°F-3.2°C 21.0°F-6.1°C 80% 4.0 mph S6.4 kmh S 9.0 mph14.5 kmh 30.20 in1022.7 mb 0.00 in0.0 mm 0.00 in0.0 mm 0.00 in0.0 mm
08:50 PM 26.4°F-3.1°C 21.1°F-6.1°C 80% 4.0 mph S6.4 kmh S 9.0 mph14.5 kmh 30.20 in1022.7 mb 0.00 in0.0 mm 0.00 in0.0 mm 0.00 in0.0 mm
08:52 PM 26.4°F-3.1°C 21.1°F-6.1°C 80% 4.0 mph S6.4 kmh S 9.0 mph14.5 kmh 30.20 in1022.7 mb 0.00 in0.0 mm 0.00 in0.0 mm 0.00 in0.0 mm
08:54 PM 26.5°F-3.1°C 21.2°F-6.0°C 80% 4.0 mph S6.4 kmh S 9.0 mph14.5 kmh 30.20 in1022.7 mb 0.00 in0.0 mm 0.00 in0.0 mm 0.00 in0.0 mm
08:56 PM 26.4°F-3.1°C 21.1°F-6.1°C 80% 4.0 mph S6.4 kmh S 10.0 mph16.1 kmh 30.20 in1022.7 mb 0.00 in0.0 mm 0.00 in0.0 mm 0.00 in0.0 mm
08:58 PM 26.5°F-3.1°C 21.2°F-6.0°C 80% 4.0 mph S6.4 kmh S 10.0 mph16.1 kmh 30.20 in1022.7 mb 0.00 in0.0 mm 0.00 in0.0 mm 0.00 in0.0 mm
09:00 PM 26.5°F-3.1°C 20.9°F-6.2°C 79% 4.0 mph S6.4 kmh S 10.0 mph16.1 kmh 30.20 in1022.7 mb 0.00 in0.0 mm 0.00 in0.0 mm 0.00 in0.0 mm
09:02 PM 26.5°F-3.1°C 20.9°F-6.2°C 79% 4.0 mph S6.4 kmh S 10.0 mph16.1 kmh 30.20 in1022.7 mb 0.00 in0.0 mm 0.00 in0.0 mm 0.00 in0.0 mm
09:04 PM 26.5°F-3.1°C 20.9°F-6.2°C 79% 4.0 mph SSW6.4 kmh SSW 10.0 mph16.1 kmh 30.20 in1022.7 mb 0.00 in0.0 mm 0.00 in0.0 mm 0.00 in0.0 mm
09:06 PM 26.6°F-3.0°C 21.0°F-6.1°C 79% 3.0 mph SSW4.8 kmh SSW 8.0 mph12.9 kmh 30.20 in1022.7 mb 0.00 in0.0 mm 0.00 in0.0 mm 0.00 in0.0 mm
09:08 PM 26.6°F-3.0°C 21.0°F-6.1°C 79% 3.0 mph S4.8 kmh S 8.0 mph12.9 kmh 30.19 in1022.4 mb 0.00 in0.0 mm 0.00 in0.0 mm 0.00 in0.0 mm
09:10 PM 26.6°F-3.0°C 21.0°F-6.1°C 79% 3.0 mph S4.8 kmh S 8.0 mph12.9 kmh 30.19 in1022.4 mb 0.00 in0.0 mm 0.00 in0.0 mm 0.00 in0.0 mm
09:12 PM 26.6°F-3.0°C 21.0°F-6.1°C 79% 3.0 mph S4.8 kmh S 8.0 mph12.9 kmh 30.19 in1022.4 mb 0.00 in0.0 mm 0.00 in0.0 mm 0.00 in0.0 mm
09:14 PM 26.6°F-3.0°C 21.0°F-6.1°C 79% 3.0 mph S4.8 kmh S 8.0 mph12.9 kmh 30.19 in1022.4 mb 0.00 in0.0 mm 0.00 in0.0 mm 0.00 in0.0 mm
09:16 PM 26.6°F-3.0°C 21.0°F-6.1°C 79% 3.0 mph S4.8 kmh S 8.0 mph12.9 kmh 30.19 in1022.4 mb 0.00 in0.0 mm 0.00 in0.0 mm 0.00 in0.0 mm
09:18 PM 26.7°F-2.9°C 21.1°F-6.1°C 79% 3.0 mph S4.8 kmh S 8.0 mph12.9 kmh 30.19 in1022.4 mb 0.00 in0.0 mm 0.00 in0.0 mm 0.00 in0.0 mm
09:20 PM 26.7°F-2.9°C 21.1°F-6.1°C 79% 4.0 mph S6.4 kmh S 9.0 mph14.5 kmh 30.19 in1022.4 mb 0.00 in0.0 mm 0.00 in0.0 mm 0.00 in0.0 mm
09:22 PM 26.7°F-2.9°C 21.1°F-6.1°C 79% 4.0 mph S6.4 kmh S 9.0 mph14.5 kmh 30.19 in1022.4 mb 0.00 in0.0 mm 0.00 in0.0 mm 0.00 in0.0 mm
09:24 PM 26.7°F-2.9°C 21.1°F-6.1°C 79% 4.0 mph S6.4 kmh S 9.0 mph14.5 kmh 30.19 in1022.4 mb 0.00 in0.0 mm 0.00 in0.0 mm 0.00 in0.0 mm
09:26 PM 26.7°F-2.9°C 21.1°F-6.1°C 79% 4.0 mph S6.4 kmh S 9.0 mph14.5 kmh 30.20 in1022.7 mb 0.00 in0.0 mm 0.00 in0.0 mm 0.00 in0.0 mm
09:28 PM 26.7°F-2.9°C 21.1°F-6.1°C 79% 4.0 mph S6.4 kmh S 9.0 mph14.5 kmh 30.20 in1022.7 mb 0.00 in0.0 mm 0.00 in0.0 mm 0.00 in0.0 mm
09:30 PM 26.7°F-2.9°C 21.1°F-6.1°C 79% 3.0 mph S4.8 kmh S 8.0 mph12.9 kmh 30.19 in1022.4 mb 0.00 in0.0 mm 0.00 in0.0 mm 0.00 in0.0 mm
09:32 PM 26.7°F-2.9°C 21.1°F-6.1°C 79% 3.0 mph S4.8 kmh S 8.0 mph12.9 kmh 30.19 in1022.4 mb 0.00 in0.0 mm 0.00 in0.0 mm 0.00 in0.0 mm
09:34 PM 26.7°F-2.9°C 21.1°F-6.1°C 79% 4.0 mph S6.4 kmh S 8.0 mph12.9 kmh 30.19 in1022.4 mb 0.00 in0.0 mm 0.00 in0.0 mm 0.00 in0.0 mm
09:36 PM 26.7°F-2.9°C 21.1°F-6.1°C 79% 4.0 mph S6.4 kmh S 8.0 mph12.9 kmh 30.19 in1022.4 mb 0.00 in0.0 mm 0.00 in0.0 mm 0.00 in0.0 mm
09:38 PM 26.7°F-2.9°C 21.1°F-6.1°C 79% 4.0 mph S6.4 kmh S 8.0 mph12.9 kmh 30.19 in1022.4 mb 0.00 in0.0 mm 0.00 in0.0 mm 0.00 in0.0 mm
09:40 PM 26.7°F-2.9°C 21.1°F-6.1°C 79% 4.0 mph S6.4 kmh S 8.0 mph12.9 kmh 30.19 in1022.4 mb 0.00 in0.0 mm 0.00 in0.0 mm 0.00 in0.0 mm
09:42 PM 26.7°F-2.9°C 21.1°F-6.1°C 79% 4.0 mph S6.4 kmh S 8.0 mph12.9 kmh 30.19 in1022.4 mb 0.00 in0.0 mm 0.00 in0.0 mm 0.00 in0.0 mm
09:44 PM 26.7°F-2.9°C 21.1°F-6.1°C 79% 4.0 mph S6.4 kmh S 8.0 mph12.9 kmh 30.19 in1022.4 mb 0.00 in0.0 mm 0.00 in0.0 mm 0.00 in0.0 mm
09:46 PM 26.7°F-2.9°C 21.1°F-6.1°C 79% 4.0 mph S6.4 kmh S 9.0 mph14.5 kmh 30.19 in1022.4 mb 0.00 in0.0 mm 0.00 in0.0 mm 0.00 in0.0 mm
09:48 PM 26.7°F-2.9°C 21.1°F-6.1°C 79% 4.0 mph S6.4 kmh S 9.0 mph14.5 kmh 30.19 in1022.4 mb 0.00 in0.0 mm 0.00 in0.0 mm 0.00 in0.0 mm
09:50 PM 26.7°F-2.9°C 21.1°F-6.1°C 79% 4.0 mph S6.4 kmh S 9.0 mph14.5 kmh 30.19 in1022.4 mb 0.00 in0.0 mm 0.00 in0.0 mm 0.00 in0.0 mm
09:52 PM 26.6°F-3.0°C 21.0°F-6.1°C 79% 4.0 mph S6.4 kmh S 9.0 mph14.5 kmh 30.19 in1022.4 mb 0.00 in0.0 mm 0.00 in0.0 mm 0.00 in0.0 mm
09:54 PM 26.6°F-3.0°C 21.0°F-6.1°C 79% 4.0 mph S6.4 kmh S 9.0 mph14.5 kmh 30.19 in1022.4 mb 0.00 in0.0 mm 0.00 in0.0 mm 0.00 in0.0 mm
09:56 PM 26.6°F-3.0°C 21.0°F-6.1°C 79% 4.0 mph S6.4 kmh S 8.0 mph12.9 kmh 30.19 in1022.4 mb 0.00 in0.0 mm 0.00 in0.0 mm 0.00 in0.0 mm
09:58 PM 26.6°F-3.0°C 21.0°F-6.1°C 79% 3.0 mph S4.8 kmh S 8.0 mph12.9 kmh 30.19 in1022.4 mb 0.00 in0.0 mm 0.00 in0.0 mm 0.00 in0.0 mm
10:00 PM 26.6°F-3.0°C 21.3°F-5.9°C 80% 3.0 mph S4.8 kmh S 7.0 mph11.3 kmh 30.19 in1022.4 mb 0.00 in0.0 mm 0.00 in0.0 mm 0.00 in0.0 mm
10:02 PM 26.6°F-3.0°C 21.3°F-5.9°C 80% 3.0 mph S4.8 kmh S 7.0 mph11.3 kmh 30.19 in1022.4 mb 0.00 in0.0 mm 0.00 in0.0 mm 0.00 in0.0 mm
10:04 PM 26.6°F-3.0°C 21.3°F-5.9°C 80% 3.0 mph S4.8 kmh S 7.0 mph11.3 kmh 30.19 in1022.4 mb 0.00 in0.0 mm 0.00 in0.0 mm 0.00 in0.0 mm
10:06 PM 26.5°F-3.1°C 21.2°F-6.0°C 80% 2.0 mph S3.2 kmh S 7.0 mph11.3 kmh 30.19 in1022.4 mb 0.00 in0.0 mm 0.00 in0.0 mm 0.00 in0.0 mm
10:08 PM 26.5°F-3.1°C 21.2°F-6.0°C 80% 2.0 mph S3.2 kmh S 7.0 mph11.3 kmh 30.19 in1022.4 mb 0.00 in0.0 mm 0.00 in0.0 mm 0.00 in0.0 mm
10:10 PM 26.5°F-3.1°C 21.2°F-6.0°C 80% 2.0 mph S3.2 kmh S 5.0 mph8.0 kmh 30.18 in1022.0 mb 0.00 in0.0 mm 0.00 in0.0 mm 0.00 in0.0 mm
10:12 PM 26.5°F-3.1°C 21.2°F-6.0°C 80% 3.0 mph S4.8 kmh S 5.0 mph8.0 kmh 30.18 in1022.0 mb 0.00 in0.0 mm 0.00 in0.0 mm 0.00 in0.0 mm
10:14 PM 26.5°F-3.1°C 21.2°F-6.0°C 80% 3.0 mph S4.8 kmh S 5.0 mph8.0 kmh 30.18 in1022.0 mb 0.00 in0.0 mm 0.00 in0.0 mm 0.00 in0.0 mm
10:16 PM 26.5°F-3.1°C 21.2°F-6.0°C 80% 3.0 mph S4.8 kmh S 5.0 mph8.0 kmh 30.18 in1022.0 mb 0.00 in0.0 mm 0.00 in0.0 mm 0.00 in0.0 mm
10:18 PM 26.5°F-3.1°C 21.2°F-6.0°C 80% 3.0 mph S4.8 kmh S 5.0 mph8.0 kmh 30.18 in1022.0 mb 0.00 in0.0 mm 0.00 in0.0 mm 0.00 in0.0 mm
10:20 PM 26.5°F-3.1°C 21.2°F-6.0°C 80% 3.0 mph S4.8 kmh S 5.0 mph8.0 kmh 30.18 in1022.0 mb 0.00 in0.0 mm 0.00 in0.0 mm 0.00 in0.0 mm
10:22 PM 26.5°F-3.1°C 21.2°F-6.0°C 80% 2.0 mph S3.2 kmh S 5.0 mph8.0 kmh 30.18 in1022.0 mb 0.00 in0.0 mm 0.00 in0.0 mm 0.00 in0.0 mm
10:24 PM 26.5°F-3.1°C 21.2°F-6.0°C 80% 2.0 mph S3.2 kmh S 5.0 mph8.0 kmh 30.18 in1022.0 mb 0.00 in0.0 mm 0.00 in0.0 mm 0.00 in0.0 mm
10:26 PM 26.5°F-3.1°C 21.5°F-5.8°C 81% 2.0 mph S3.2 kmh S 5.0 mph8.0 kmh 30.18 in1022.0 mb 0.00 in0.0 mm 0.00 in0.0 mm 0.00 in0.0 mm
10:28 PM 26.5°F-3.1°C 21.5°F-5.8°C 81% 2.0 mph S3.2 kmh S 5.0 mph8.0 kmh 30.18 in1022.0 mb 0.00 in0.0 mm 0.00 in0.0 mm 0.00 in0.0 mm
10:30 PM 26.5°F-3.1°C 21.5°F-5.8°C 81% 3.0 mph S4.8 kmh S 5.0 mph8.0 kmh 30.18 in1022.0 mb 0.00 in0.0 mm 0.00 in0.0 mm 0.00 in0.0 mm
10:32 PM 26.5°F-3.1°C 21.5°F-5.8°C 81% 3.0 mph S4.8 kmh S 5.0 mph8.0 kmh 30.18 in1022.0 mb 0.00 in0.0 mm 0.00 in0.0 mm 0.00 in0.0 mm
10:34 PM 26.5°F-3.1°C 21.5°F-5.8°C 81% 3.0 mph S4.8 kmh S 5.0 mph8.0 kmh 30.18 in1022.0 mb 0.00 in0.0 mm 0.00 in0.0 mm 0.00 in0.0 mm
10:36 PM 26.5°F-3.1°C 21.5°F-5.8°C 81% 3.0 mph S4.8 kmh S 5.0 mph8.0 kmh 30.18 in1022.0 mb 0.00 in0.0 mm 0.00 in0.0 mm 0.00 in0.0 mm
10:38 PM 26.5°F-3.1°C 21.5°F-5.8°C 81% 3.0 mph S4.8 kmh S 5.0 mph8.0 kmh 30.18 in1022.0 mb 0.00 in0.0 mm 0.00 in0.0 mm 0.00 in0.0 mm
10:40 PM 26.5°F-3.1°C 21.5°F-5.8°C 81% 2.0 mph SSW3.2 kmh SSW 5.0 mph8.0 kmh 30.18 in1022.0 mb 0.00 in0.0 mm 0.00 in0.0 mm 0.00 in0.0 mm
10:42 PM 26.5°F-3.1°C 21.5°F-5.8°C 81% 2.0 mph S3.2 kmh S 4.0 mph6.4 kmh 30.18 in1022.0 mb 0.00 in0.0 mm 0.00 in0.0 mm 0.00 in0.0 mm
10:44 PM 26.5°F-3.1°C 21.5°F-5.8°C 81% 2.0 mph S3.2 kmh S 5.0 mph8.0 kmh 30.18 in1022.0 mb 0.00 in0.0 mm 0.00 in0.0 mm 0.00 in0.0 mm
10:46 PM 26.5°F-3.1°C 21.5°F-5.8°C 81% 2.0 mph S3.2 kmh S 5.0 mph8.0 kmh 30.18 in1022.0 mb 0.00 in0.0 mm 0.00 in0.0 mm 0.00 in0.0 mm
10:48 PM 26.5°F-3.1°C 21.5°F-5.8°C 81% 3.0 mph S4.8 kmh S 5.0 mph8.0 kmh 30.18 in1022.0 mb 0.00 in0.0 mm 0.00 in0.0 mm 0.00 in0.0 mm
10:50 PM 26.5°F-3.1°C 21.5°F-5.8°C 81% 3.0 mph S4.8 kmh S 7.0 mph11.3 kmh 30.18 in1022.0 mb 0.00 in0.0 mm 0.00 in0.0 mm 0.00 in0.0 mm
10:52 PM 26.6°F-3.0°C 21.6°F-5.8°C 81% 3.0 mph S4.8 kmh S 7.0 mph11.3 kmh 30.18 in1022.0 mb 0.00 in0.0 mm 0.00 in0.0 mm 0.00 in0.0 mm
10:54 PM 26.6°F-3.0°C 21.6°F-5.8°C 81% 4.0 mph S6.4 kmh S 8.0 mph12.9 kmh 30.18 in1022.0 mb 0.00 in0.0 mm 0.00 in0.0 mm 0.00 in0.0 mm
10:56 PM 26.6°F-3.0°C 21.6°F-5.8°C 81% 3.0 mph S4.8 kmh S 8.0 mph12.9 kmh 30.18 in1022.0 mb 0.00 in0.0 mm 0.00 in0.0 mm 0.00 in0.0 mm
10:58 PM 26.6°F-3.0°C 21.6°F-5.8°C 81% 4.0 mph S6.4 kmh S 8.0 mph12.9 kmh 30.18 in1022.0 mb 0.00 in0.0 mm 0.00 in0.0 mm 0.00 in0.0 mm
11:00 PM 26.6°F-3.0°C 21.6°F-5.8°C 81% 4.0 mph S6.4 kmh S 8.0 mph12.9 kmh 30.17 in1021.7 mb 0.00 in0.0 mm 0.00 in0.0 mm 0.00 in0.0 mm
11:02 PM 26.6°F-3.0°C 21.6°F-5.8°C 81% 3.0 mph S4.8 kmh S 8.0 mph12.9 kmh 30.18 in1022.0 mb 0.00 in0.0 mm 0.00 in0.0 mm 0.00 in0.0 mm
11:04 PM 26.6°F-3.0°C 21.6°F-5.8°C 81% 3.0 mph S4.8 kmh S 7.0 mph11.3 kmh 30.18 in1022.0 mb 0.00 in0.0 mm 0.00 in0.0 mm 0.00 in0.0 mm
11:06 PM 26.6°F-3.0°C 21.3°F-5.9°C 80% 3.0 mph S4.8 kmh S 7.0 mph11.3 kmh 30.18 in1022.0 mb 0.00 in0.0 mm 0.00 in0.0 mm 0.00 in0.0 mm
11:08 PM 26.6°F-3.0°C 21.3°F-5.9°C 80% 3.0 mph S4.8 kmh S 6.0 mph9.7 kmh 30.18 in1022.0 mb 0.00 in0.0 mm 0.00 in0.0 mm 0.00 in0.0 mm
11:10 PM 26.6°F-3.0°C 21.3°F-5.9°C 80% 3.0 mph S4.8 kmh S 6.0 mph9.7 kmh 30.18 in1022.0 mb 0.00 in0.0 mm 0.00 in0.0 mm 0.00 in0.0 mm
11:12 PM 26.5°F-3.1°C 21.2°F-6.0°C 80% 3.0 mph S4.8 kmh S 5.0 mph8.0 kmh 30.18 in1022.0 mb 0.00 in0.0 mm 0.00 in0.0 mm 0.00 in0.0 mm
11:14 PM 26.4°F-3.1°C 21.1°F-6.1°C 80% 3.0 mph S4.8 kmh S 7.0 mph11.3 kmh 30.18 in1022.0 mb 0.00 in0.0 mm 0.00 in0.0 mm 0.00 in0.0 mm
11:16 PM 26.3°F-3.2°C 21.0°F-6.1°C 80% 3.0 mph S4.8 kmh S 7.0 mph11.3 kmh 30.18 in1022.0 mb 0.00 in0.0 mm 0.00 in0.0 mm 0.00 in0.0 mm
11:18 PM 26.2°F-3.2°C 21.2°F-6.0°C 81% 3.0 mph S4.8 kmh S 7.0 mph11.3 kmh 30.18 in1022.0 mb 0.00 in0.0 mm 0.00 in0.0 mm 0.00 in0.0 mm
11:20 PM 26.1°F-3.3°C 21.1°F-6.1°C 81% 2.0 mph S3.2 kmh S 7.0 mph11.3 kmh 30.18 in1022.0 mb 0.00 in0.0 mm 0.00 in0.0 mm 0.00 in0.0 mm
11:22 PM 26.0°F-3.3°C 21.0°F-6.1°C 81% 2.0 mph S3.2 kmh S 7.0 mph11.3 kmh 30.18 in1022.0 mb 0.00 in0.0 mm 0.00 in0.0 mm 0.00 in0.0 mm
11:24 PM 25.9°F-3.4°C 20.9°F-6.2°C 81% 2.0 mph S3.2 kmh S 5.0 mph8.0 kmh 30.18 in1022.0 mb 0.00 in0.0 mm 0.00 in0.0 mm 0.00 in0.0 mm
11:26 PM 25.8°F-3.4°C 20.8°F-6.2°C 81% 2.0 mph S3.2 kmh S 5.0 mph8.0 kmh 30.18 in1022.0 mb 0.00 in0.0 mm 0.00 in0.0 mm 0.00 in0.0 mm
11:28 PM 25.7°F-3.5°C 20.7°F-6.3°C 81% 2.0 mph S3.2 kmh S 5.0 mph8.0 kmh 30.18 in1022.0 mb 0.00 in0.0 mm 0.00 in0.0 mm 0.00 in0.0 mm
11:30 PM 25.7°F-3.5°C 20.7°F-6.3°C 81% 2.0 mph S3.2 kmh S 5.0 mph8.0 kmh 30.18 in1022.0 mb 0.00 in0.0 mm 0.00 in0.0 mm 0.00 in0.0 mm
11:32 PM 25.6°F-3.6°C 20.6°F-6.3°C 81% 2.0 mph S3.2 kmh S 5.0 mph8.0 kmh 30.18 in1022.0 mb 0.00 in0.0 mm 0.00 in0.0 mm 0.00 in0.0 mm
11:34 PM 25.5°F-3.6°C 20.8°F-6.2°C 82% 3.0 mph S4.8 kmh S 5.0 mph8.0 kmh 30.18 in1022.0 mb 0.00 in0.0 mm 0.00 in0.0 mm 0.00 in0.0 mm
11:36 PM 25.5°F-3.6°C 20.8°F-6.2°C 82% 2.0 mph S3.2 kmh S 4.0 mph6.4 kmh 30.17 in1021.7 mb 0.00 in0.0 mm 0.00 in0.0 mm 0.00 in0.0 mm
11:38 PM 25.5°F-3.6°C 20.8°F-6.2°C 82% 2.0 mph S3.2 kmh S 4.0 mph6.4 kmh 30.17 in1021.7 mb 0.00 in0.0 mm 0.00 in0.0 mm 0.00 in0.0 mm
11:40 PM 25.5°F-3.6°C 20.8°F-6.2°C 82% 2.0 mph S3.2 kmh S 4.0 mph6.4 kmh 30.17 in1021.7 mb 0.00 in0.0 mm 0.00 in0.0 mm 0.00 in0.0 mm
11:42 PM 25.5°F-3.6°C 20.8°F-6.2°C 82% 2.0 mph S3.2 kmh S 4.0 mph6.4 kmh 30.17 in1021.7 mb 0.00 in0.0 mm 0.00 in0.0 mm 0.00 in0.0 mm
11:44 PM 25.5°F-3.6°C 21.1°F-6.1°C 83% 2.0 mph S3.2 kmh S 4.0 mph6.4 kmh 30.17 in1021.7 mb 0.00 in0.0 mm 0.00 in0.0 mm 0.00 in0.0 mm
11:46 PM 25.6°F-3.6°C 21.2°F-6.0°C 83% 2.0 mph S3.2 kmh S 4.0 mph6.4 kmh 30.17 in1021.7 mb 0.00 in0.0 mm 0.00 in0.0 mm 0.00 in0.0 mm
11:48 PM 25.6°F-3.6°C 21.2°F-6.0°C 83% 2.0 mph S3.2 kmh S 4.0 mph6.4 kmh 30.17 in1021.7 mb 0.00 in0.0 mm 0.00 in0.0 mm 0.00 in0.0 mm
11:50 PM 25.7°F-3.5°C 21.3°F-5.9°C 83% 2.0 mph S3.2 kmh S 5.0 mph8.0 kmh 30.17 in1021.7 mb 0.00 in0.0 mm 0.00 in0.0 mm 0.00 in0.0 mm
11:52 PM 25.8°F-3.4°C 21.3°F-5.9°C 83% 3.0 mph S4.8 kmh S 5.0 mph8.0 kmh 30.17 in1021.7 mb 0.00 in0.0 mm 0.00 in0.0 mm 0.00 in0.0 mm
11:54 PM 25.8°F-3.4°C 21.3°F-5.9°C 83% 3.0 mph S4.8 kmh S 5.0 mph8.0 kmh 30.17 in1021.7 mb 0.00 in0.0 mm 0.00 in0.0 mm 0.00 in0.0 mm
11:56 PM 25.9°F-3.4°C 21.4°F-5.9°C 83% 2.0 mph S3.2 kmh S 5.0 mph8.0 kmh 30.17 in1021.7 mb 0.00 in0.0 mm 0.00 in0.0 mm 0.00 in0.0 mm
11:58 PM 25.9°F-3.4°C 21.4°F-5.9°C 83% 3.0 mph S4.8 kmh S 5.0 mph8.0 kmh 30.17 in1021.7 mb 0.00 in0.0 mm 0.00 in0.0 mm 0.00 in0.0 mm